<?xml version="1.0" encoding="UTF-8" standalone="no" ?><gpx xmlns="http://www.topografix.com/GPX/1/1" xmlns:gpxx="http://www.garmin.com/xmlschemas/GpxExtensions/v3" xmlns:gpxtpx="http://www.garmin.com/xmlschemas/TrackPointExtension/v1" creator="Foretrex 301" version="1.1" xmlns:xsi="http://www.w3.org/2001/XMLSchema-instance" xsi:schemaLocation="http://www.topografix.com/GPX/1/1 http://www.topografix.com/GPX/1/1/gpx.xsd http://www.garmin.com/xmlschemas/GpxExtensions/v3 http://www.garmin.com/xmlschemas/GpxExtensions/v3/GpxExtensionsv3.xsd"><metadata><link href="http://www.garmin.com"><text>Garmin International</text></link><time>2011-08-17T11:36:05Z</time></metadata><trk><name>ACTIVE LOG: 17 AUG 2011 09:02</name><trkseg><trkpt lat="51.952110" lon="-1.972328"><ele>105.88</ele><time>2011-08-17T09:02:52Z</time></trkpt><trkpt lat="51.952112" lon="-1.972321"><ele>105.40</ele><time>2011-08-17T09:03:21Z</time></trkpt><trkpt lat="51.952091" lon="-1.972320"><ele>104.92</ele><time>2011-08-17T09:03:31Z</time></trkpt><trkpt lat="51.952102" lon="-1.972337"><ele>104.44</ele><time>2011-08-17T09:03:45Z</time></trkpt><trkpt lat="51.952088" lon="-1.972369"><ele>104.44</ele><time>2011-08-17T09:04:05Z</time></trkpt><trkpt lat="51.952081" lon="-1.972400"><ele>103.48</ele><time>2011-08-17T09:04:15Z</time></trkpt><trkpt lat="51.952068" lon="-1.972412"><ele>103.96</ele><time>2011-08-17T09:04:22Z</time></trkpt><trkpt lat="51.952063" lon="-1.972406"><ele>104.44</ele><time>2011-08-17T09:04:24Z</time></trkpt><trkpt lat="51.952050" lon="-1.972399"><ele>104.44</ele><time>2011-08-17T09:04:26Z</time></trkpt><trkpt lat="51.951938" lon="-1.972276"><ele>103.96</ele><time>2011-08-17T09:04:36Z</time></trkpt><trkpt lat="51.951846" lon="-1.972178"><ele>104.92</ele><time>2011-08-17T09:04:44Z</time></trkpt><trkpt lat="51.951836" lon="-1.972167"><ele>104.92</ele><time>2011-08-17T09:04:45Z</time></trkpt><trkpt lat="51.951806" lon="-1.972141"><ele>104.44</ele><time>2011-08-17T09:04:48Z</time></trkpt><trkpt lat="51.951756" lon="-1.972009"><ele>103.00</ele><time>2011-08-17T09:04:57Z</time></trkpt><trkpt lat="51.951675" lon="-1.971919"><ele>103.96</ele><time>2011-08-17T09:05:04Z</time></trkpt><trkpt lat="51.951536" lon="-1.971933"><ele>106.36</ele><time>2011-08-17T09:05:14Z</time></trkpt><trkpt lat="51.951488" lon="-1.971930"><ele>107.81</ele><time>2011-08-17T09:05:18Z</time></trkpt><trkpt lat="51.951455" lon="-1.972040"><ele>107.32</ele><time>2011-08-17T09:05:25Z</time></trkpt><trkpt lat="51.951445" lon="-1.972074"><ele>106.84</ele><time>2011-08-17T09:05:27Z</time></trkpt><trkpt lat="51.951422" lon="-1.972119"><ele>106.36</ele><time>2011-08-17T09:05:30Z</time></trkpt><trkpt lat="51.951388" lon="-1.972177"><ele>105.88</ele><time>2011-08-17T09:05:34Z</time></trkpt><trkpt lat="51.951357" lon="-1.972263"><ele>104.92</ele><time>2011-08-17T09:05:40Z</time></trkpt><trkpt lat="51.951318" lon="-1.972388"><ele>105.88</ele><time>2011-08-17T09:05:48Z</time></trkpt><trkpt lat="51.951237" lon="-1.972476"><ele>105.88</ele><time>2011-08-17T09:05:56Z</time></trkpt><trkpt lat="51.951148" lon="-1.972618"><ele>105.88</ele><time>2011-08-17T09:06:06Z</time></trkpt><trkpt lat="51.951036" lon="-1.972718"><ele>105.88</ele><time>2011-08-17T09:06:16Z</time></trkpt><trkpt lat="51.950931" lon="-1.972857"><ele>106.84</ele><time>2011-08-17T09:06:28Z</time></trkpt><trkpt lat="51.950871" lon="-1.972898"><ele>106.36</ele><time>2011-08-17T09:06:33Z</time></trkpt><trkpt lat="51.950827" lon="-1.972955"><ele>106.84</ele><time>2011-08-17T09:06:37Z</time></trkpt><trkpt lat="51.950698" lon="-1.973125"><ele>113.57</ele><time>2011-08-17T09:06:50Z</time></trkpt><trkpt lat="51.950588" lon="-1.973187"><ele>112.13</ele><time>2011-08-17T09:07:01Z</time></trkpt><trkpt lat="51.950490" lon="-1.973271"><ele>110.21</ele><time>2011-08-17T09:07:11Z</time></trkpt><trkpt lat="51.950386" lon="-1.973361"><ele>108.77</ele><time>2011-08-17T09:07:21Z</time></trkpt><trkpt lat="51.950263" lon="-1.973508"><ele>106.84</ele><time>2011-08-17T09:07:34Z</time></trkpt><trkpt lat="51.950181" lon="-1.973595"><ele>106.36</ele><time>2011-08-17T09:07:42Z</time></trkpt><trkpt lat="51.950059" lon="-1.973728"><ele>107.81</ele><time>2011-08-17T09:07:54Z</time></trkpt><trkpt lat="51.949934" lon="-1.973900"><ele>109.73</ele><time>2011-08-17T09:08:07Z</time></trkpt><trkpt lat="51.949844" lon="-1.974005"><ele>108.29</ele><time>2011-08-17T09:08:17Z</time></trkpt><trkpt lat="51.949767" lon="-1.974085"><ele>106.84</ele><time>2011-08-17T09:08:26Z</time></trkpt><trkpt lat="51.949657" lon="-1.974214"><ele>108.77</ele><time>2011-08-17T09:08:36Z</time></trkpt><trkpt lat="51.949595" lon="-1.974184"><ele>107.32</ele><time>2011-08-17T09:08:43Z</time></trkpt><trkpt lat="51.949506" lon="-1.974236"><ele>107.32</ele><time>2011-08-17T09:08:51Z</time></trkpt><trkpt lat="51.949398" lon="-1.974263"><ele>105.88</ele><time>2011-08-17T09:09:01Z</time></trkpt><trkpt lat="51.949359" lon="-1.974303"><ele>105.40</ele><time>2011-08-17T09:09:05Z</time></trkpt><trkpt lat="51.949266" lon="-1.974358"><ele>103.96</ele><time>2011-08-17T09:09:15Z</time></trkpt><trkpt lat="51.949185" lon="-1.974409"><ele>102.04</ele><time>2011-08-17T09:09:23Z</time></trkpt><trkpt lat="51.949090" lon="-1.974511"><ele>101.56</ele><time>2011-08-17T09:09:34Z</time></trkpt><trkpt lat="51.948994" lon="-1.974570"><ele>102.04</ele><time>2011-08-17T09:09:43Z</time></trkpt><trkpt lat="51.948876" lon="-1.974662"><ele>103.00</ele><time>2011-08-17T09:09:55Z</time></trkpt><trkpt lat="51.948814" lon="-1.974713"><ele>103.00</ele><time>2011-08-17T09:10:02Z</time></trkpt><trkpt lat="51.948713" lon="-1.974803"><ele>103.48</ele><time>2011-08-17T09:10:12Z</time></trkpt><trkpt lat="51.948624" lon="-1.974885"><ele>102.52</ele><time>2011-08-17T09:10:21Z</time></trkpt><trkpt lat="51.948596" lon="-1.974912"><ele>102.04</ele><time>2011-08-17T09:10:24Z</time></trkpt><trkpt lat="51.948514" lon="-1.974970"><ele>101.56</ele><time>2011-08-17T09:10:33Z</time></trkpt><trkpt lat="51.948427" lon="-1.974998"><ele>102.04</ele><time>2011-08-17T09:10:42Z</time></trkpt><trkpt lat="51.948358" lon="-1.975003"><ele>102.04</ele><time>2011-08-17T09:10:49Z</time></trkpt><trkpt lat="51.948291" lon="-1.975013"><ele>101.08</ele><time>2011-08-17T09:10:56Z</time></trkpt><trkpt lat="51.948218" lon="-1.975060"><ele>100.11</ele><time>2011-08-17T09:11:04Z</time></trkpt><trkpt lat="51.948134" lon="-1.975087"><ele>100.60</ele><time>2011-08-17T09:11:13Z</time></trkpt><trkpt lat="51.948049" lon="-1.975112"><ele>102.52</ele><time>2011-08-17T09:11:21Z</time></trkpt><trkpt lat="51.947981" lon="-1.975146"><ele>105.88</ele><time>2011-08-17T09:11:28Z</time></trkpt><trkpt lat="51.947883" lon="-1.975183"><ele>105.40</ele><time>2011-08-17T09:11:37Z</time></trkpt><trkpt lat="51.947827" lon="-1.975228"><ele>104.44</ele><time>2011-08-17T09:11:44Z</time></trkpt><trkpt lat="51.947766" lon="-1.975277"><ele>103.48</ele><time>2011-08-17T09:11:52Z</time></trkpt><trkpt lat="51.947717" lon="-1.975362"><ele>103.48</ele><time>2011-08-17T09:12:00Z</time></trkpt><trkpt lat="51.947694" lon="-1.975421"><ele>103.96</ele><time>2011-08-17T09:12:08Z</time></trkpt><trkpt lat="51.947681" lon="-1.975419"><ele>103.96</ele><time>2011-08-17T09:12:34Z</time></trkpt><trkpt lat="51.947694" lon="-1.975473"><ele>103.96</ele><time>2011-08-17T09:13:06Z</time></trkpt><trkpt lat="51.947695" lon="-1.975474"><ele>103.96</ele><time>2011-08-17T09:13:07Z</time></trkpt><trkpt lat="51.947672" lon="-1.975477"><ele>103.96</ele><time>2011-08-17T09:13:12Z</time></trkpt><trkpt lat="51.947590" lon="-1.975526"><ele>105.40</ele><time>2011-08-17T09:13:20Z</time></trkpt><trkpt lat="51.947563" lon="-1.975531"><ele>105.40</ele><time>2011-08-17T09:13:42Z</time></trkpt><trkpt lat="51.947452" lon="-1.975583"><ele>104.44</ele><time>2011-08-17T09:13:52Z</time></trkpt><trkpt lat="51.947386" lon="-1.975630"><ele>103.96</ele><time>2011-08-17T09:14:01Z</time></trkpt><trkpt lat="51.947332" lon="-1.975665"><ele>104.92</ele><time>2011-08-17T09:14:10Z</time></trkpt><trkpt lat="51.947269" lon="-1.975719"><ele>105.88</ele><time>2011-08-17T09:14:18Z</time></trkpt><trkpt lat="51.947199" lon="-1.975767"><ele>106.84</ele><time>2011-08-17T09:14:25Z</time></trkpt><trkpt lat="51.947124" lon="-1.975825"><ele>106.84</ele><time>2011-08-17T09:14:33Z</time></trkpt><trkpt lat="51.947060" lon="-1.975884"><ele>106.84</ele><time>2011-08-17T09:14:41Z</time></trkpt><trkpt lat="51.946986" lon="-1.975950"><ele>105.40</ele><time>2011-08-17T09:14:50Z</time></trkpt><trkpt lat="51.946953" lon="-1.975977"><ele>105.40</ele><time>2011-08-17T09:14:56Z</time></trkpt><trkpt lat="51.946905" lon="-1.976016"><ele>105.88</ele><time>2011-08-17T09:15:04Z</time></trkpt><trkpt lat="51.946871" lon="-1.976038"><ele>105.88</ele><time>2011-08-17T09:15:11Z</time></trkpt><trkpt lat="51.946847" lon="-1.976075"><ele>104.92</ele><time>2011-08-17T09:15:18Z</time></trkpt><trkpt lat="51.946805" lon="-1.976123"><ele>104.44</ele><time>2011-08-17T09:15:26Z</time></trkpt><trkpt lat="51.946731" lon="-1.976170"><ele>104.92</ele><time>2011-08-17T09:15:34Z</time></trkpt><trkpt lat="51.946675" lon="-1.976226"><ele>104.44</ele><time>2011-08-17T09:15:43Z</time></trkpt><trkpt lat="51.946619" lon="-1.976287"><ele>103.96</ele><time>2011-08-17T09:15:52Z</time></trkpt><trkpt lat="51.946564" lon="-1.976325"><ele>103.48</ele><time>2011-08-17T09:16:03Z</time></trkpt><trkpt lat="51.946492" lon="-1.976381"><ele>103.96</ele><time>2011-08-17T09:16:11Z</time></trkpt><trkpt lat="51.946415" lon="-1.976463"><ele>105.40</ele><time>2011-08-17T09:16:21Z</time></trkpt><trkpt lat="51.946339" lon="-1.976519"><ele>107.81</ele><time>2011-08-17T09:16:30Z</time></trkpt><trkpt lat="51.946290" lon="-1.976553"><ele>108.77</ele><time>2011-08-17T09:16:37Z</time></trkpt><trkpt lat="51.946241" lon="-1.976617"><ele>109.25</ele><time>2011-08-17T09:16:43Z</time></trkpt><trkpt lat="51.946170" lon="-1.976687"><ele>109.73</ele><time>2011-08-17T09:16:51Z</time></trkpt><trkpt lat="51.946088" lon="-1.976750"><ele>108.77</ele><time>2011-08-17T09:17:00Z</time></trkpt><trkpt lat="51.946007" lon="-1.976828"><ele>108.29</ele><time>2011-08-17T09:17:09Z</time></trkpt><trkpt lat="51.945932" lon="-1.976916"><ele>108.77</ele><time>2011-08-17T09:17:17Z</time></trkpt><trkpt lat="51.945843" lon="-1.977010"><ele>106.84</ele><time>2011-08-17T09:17:28Z</time></trkpt><trkpt lat="51.945774" lon="-1.977102"><ele>105.88</ele><time>2011-08-17T09:17:37Z</time></trkpt><trkpt lat="51.945711" lon="-1.977210"><ele>104.92</ele><time>2011-08-17T09:17:47Z</time></trkpt><trkpt lat="51.945660" lon="-1.977301"><ele>105.88</ele><time>2011-08-17T09:17:55Z</time></trkpt><trkpt lat="51.945597" lon="-1.977411"><ele>105.88</ele><time>2011-08-17T09:18:04Z</time></trkpt><trkpt lat="51.945531" lon="-1.977500"><ele>105.88</ele><time>2011-08-17T09:18:12Z</time></trkpt><trkpt lat="51.945441" lon="-1.977549"><ele>105.40</ele><time>2011-08-17T09:18:22Z</time></trkpt><trkpt lat="51.945391" lon="-1.977570"><ele>106.36</ele><time>2011-08-17T09:18:28Z</time></trkpt><trkpt lat="51.945353" lon="-1.977628"><ele>107.81</ele><time>2011-08-17T09:18:36Z</time></trkpt><trkpt lat="51.945374" lon="-1.977652"><ele>106.36</ele><time>2011-08-17T09:18:44Z</time></trkpt><trkpt lat="51.945372" lon="-1.977660"><ele>106.84</ele><time>2011-08-17T09:19:03Z</time></trkpt><trkpt lat="51.945311" lon="-1.977819"><ele>107.81</ele><time>2011-08-17T09:19:12Z</time></trkpt><trkpt lat="51.945282" lon="-1.977828"><ele>107.32</ele><time>2011-08-17T09:19:21Z</time></trkpt><trkpt lat="51.945241" lon="-1.977894"><ele>108.29</ele><time>2011-08-17T09:19:30Z</time></trkpt><trkpt lat="51.945213" lon="-1.977935"><ele>108.77</ele><time>2011-08-17T09:19:37Z</time></trkpt><trkpt lat="51.945186" lon="-1.977996"><ele>110.21</ele><time>2011-08-17T09:19:47Z</time></trkpt><trkpt lat="51.945170" lon="-1.978068"><ele>110.69</ele><time>2011-08-17T09:19:54Z</time></trkpt><trkpt lat="51.945163" lon="-1.978122"><ele>109.73</ele><time>2011-08-17T09:20:00Z</time></trkpt><trkpt lat="51.945134" lon="-1.978203"><ele>109.73</ele><time>2011-08-17T09:20:08Z</time></trkpt><trkpt lat="51.945119" lon="-1.978264"><ele>109.73</ele><time>2011-08-17T09:20:15Z</time></trkpt><trkpt lat="51.945105" lon="-1.978305"><ele>110.21</ele><time>2011-08-17T09:20:21Z</time></trkpt><trkpt lat="51.945089" lon="-1.978339"><ele>110.69</ele><time>2011-08-17T09:20:29Z</time></trkpt><trkpt lat="51.945059" lon="-1.978409"><ele>111.65</ele><time>2011-08-17T09:20:37Z</time></trkpt><trkpt lat="51.945033" lon="-1.978501"><ele>112.13</ele><time>2011-08-17T09:20:46Z</time></trkpt><trkpt lat="51.945019" lon="-1.978558"><ele>112.61</ele><time>2011-08-17T09:20:53Z</time></trkpt><trkpt lat="51.945010" lon="-1.978620"><ele>112.61</ele><time>2011-08-17T09:20:59Z</time></trkpt><trkpt lat="51.945013" lon="-1.978636"><ele>112.13</ele><time>2011-08-17T09:21:06Z</time></trkpt><trkpt lat="51.944989" lon="-1.978696"><ele>113.57</ele><time>2011-08-17T09:21:13Z</time></trkpt><trkpt lat="51.944970" lon="-1.978779"><ele>114.05</ele><time>2011-08-17T09:21:20Z</time></trkpt><trkpt lat="51.944957" lon="-1.978852"><ele>114.53</ele><time>2011-08-17T09:21:27Z</time></trkpt><trkpt lat="51.944926" lon="-1.978907"><ele>115.50</ele><time>2011-08-17T09:21:34Z</time></trkpt><trkpt lat="51.944905" lon="-1.978948"><ele>115.98</ele><time>2011-08-17T09:21:40Z</time></trkpt><trkpt lat="51.944885" lon="-1.979011"><ele>115.98</ele><time>2011-08-17T09:21:47Z</time></trkpt><trkpt lat="51.944889" lon="-1.979068"><ele>115.50</ele><time>2011-08-17T09:21:55Z</time></trkpt><trkpt lat="51.944874" lon="-1.979131"><ele>115.01</ele><time>2011-08-17T09:22:05Z</time></trkpt><trkpt lat="51.944880" lon="-1.979171"><ele>114.53</ele><time>2011-08-17T09:22:11Z</time></trkpt><trkpt lat="51.944845" lon="-1.979198"><ele>114.53</ele><time>2011-08-17T09:22:19Z</time></trkpt><trkpt lat="51.944784" lon="-1.979266"><ele>116.94</ele><time>2011-08-17T09:22:30Z</time></trkpt><trkpt lat="51.944733" lon="-1.979325"><ele>117.42</ele><time>2011-08-17T09:22:40Z</time></trkpt><trkpt lat="51.944705" lon="-1.979368"><ele>118.38</ele><time>2011-08-17T09:22:46Z</time></trkpt><trkpt lat="51.944650" lon="-1.979458"><ele>118.38</ele><time>2011-08-17T09:22:56Z</time></trkpt><trkpt lat="51.944576" lon="-1.979536"><ele>118.38</ele><time>2011-08-17T09:23:06Z</time></trkpt><trkpt lat="51.944512" lon="-1.979636"><ele>119.34</ele><time>2011-08-17T09:23:15Z</time></trkpt><trkpt lat="51.944444" lon="-1.979731"><ele>119.34</ele><time>2011-08-17T09:23:24Z</time></trkpt><trkpt lat="51.944360" lon="-1.979836"><ele>119.82</ele><time>2011-08-17T09:23:36Z</time></trkpt><trkpt lat="51.944316" lon="-1.979930"><ele>120.78</ele><time>2011-08-17T09:23:45Z</time></trkpt><trkpt lat="51.944295" lon="-1.980004"><ele>121.74</ele><time>2011-08-17T09:23:52Z</time></trkpt><trkpt lat="51.944234" lon="-1.980157"><ele>122.22</ele><time>2011-08-17T09:24:05Z</time></trkpt><trkpt lat="51.944184" lon="-1.980243"><ele>121.74</ele><time>2011-08-17T09:24:14Z</time></trkpt><trkpt lat="51.944124" lon="-1.980357"><ele>122.22</ele><time>2011-08-17T09:24:24Z</time></trkpt><trkpt lat="51.944077" lon="-1.980442"><ele>121.26</ele><time>2011-08-17T09:24:32Z</time></trkpt><trkpt lat="51.944010" lon="-1.980605"><ele>121.74</ele><time>2011-08-17T09:24:46Z</time></trkpt><trkpt lat="51.943986" lon="-1.980703"><ele>122.71</ele><time>2011-08-17T09:24:53Z</time></trkpt><trkpt lat="51.943938" lon="-1.980791"><ele>123.19</ele><time>2011-08-17T09:25:01Z</time></trkpt><trkpt lat="51.943911" lon="-1.980863"><ele>122.71</ele><time>2011-08-17T09:25:08Z</time></trkpt><trkpt lat="51.943890" lon="-1.980896"><ele>122.71</ele><time>2011-08-17T09:25:17Z</time></trkpt><trkpt lat="51.943903" lon="-1.980883"><ele>123.19</ele><time>2011-08-17T09:25:27Z</time></trkpt><trkpt lat="51.943880" lon="-1.980860"><ele>125.11</ele><time>2011-08-17T09:26:08Z</time></trkpt><trkpt lat="51.943934" lon="-1.980970"><ele>125.11</ele><time>2011-08-17T09:26:26Z</time></trkpt><trkpt lat="51.943803" lon="-1.981003"><ele>125.11</ele><time>2011-08-17T09:26:36Z</time></trkpt><trkpt lat="51.943737" lon="-1.981024"><ele>124.63</ele><time>2011-08-17T09:26:45Z</time></trkpt><trkpt lat="51.943676" lon="-1.981119"><ele>122.71</ele><time>2011-08-17T09:26:54Z</time></trkpt><trkpt lat="51.943600" lon="-1.981233"><ele>120.30</ele><time>2011-08-17T09:27:04Z</time></trkpt><trkpt lat="51.943528" lon="-1.981361"><ele>120.78</ele><time>2011-08-17T09:27:13Z</time></trkpt><trkpt lat="51.943495" lon="-1.981445"><ele>122.22</ele><time>2011-08-17T09:27:20Z</time></trkpt><trkpt lat="51.943443" lon="-1.981558"><ele>123.19</ele><time>2011-08-17T09:27:25Z</time></trkpt><trkpt lat="51.943366" lon="-1.981737"><ele>123.67</ele><time>2011-08-17T09:27:31Z</time></trkpt><trkpt lat="51.943322" lon="-1.981878"><ele>122.22</ele><time>2011-08-17T09:27:38Z</time></trkpt><trkpt lat="51.943278" lon="-1.981987"><ele>123.19</ele><time>2011-08-17T09:27:46Z</time></trkpt><trkpt lat="51.943251" lon="-1.982096"><ele>124.63</ele><time>2011-08-17T09:27:54Z</time></trkpt><trkpt lat="51.943219" lon="-1.982189"><ele>127.51</ele><time>2011-08-17T09:28:01Z</time></trkpt><trkpt lat="51.943165" lon="-1.982314"><ele>129.92</ele><time>2011-08-17T09:28:09Z</time></trkpt><trkpt lat="51.943154" lon="-1.982488"><ele>130.40</ele><time>2011-08-17T09:28:18Z</time></trkpt><trkpt lat="51.943159" lon="-1.982553"><ele>130.40</ele><time>2011-08-17T09:28:26Z</time></trkpt><trkpt lat="51.943143" lon="-1.982685"><ele>129.43</ele><time>2011-08-17T09:28:33Z</time></trkpt><trkpt lat="51.943139" lon="-1.982804"><ele>128.95</ele><time>2011-08-17T09:28:41Z</time></trkpt><trkpt lat="51.943137" lon="-1.982887"><ele>129.43</ele><time>2011-08-17T09:28:48Z</time></trkpt><trkpt lat="51.943142" lon="-1.983048"><ele>130.88</ele><time>2011-08-17T09:28:59Z</time></trkpt><trkpt lat="51.943167" lon="-1.983213"><ele>131.36</ele><time>2011-08-17T09:29:08Z</time></trkpt><trkpt lat="51.943168" lon="-1.983308"><ele>130.88</ele><time>2011-08-17T09:29:15Z</time></trkpt><trkpt lat="51.943151" lon="-1.983416"><ele>131.36</ele><time>2011-08-17T09:29:22Z</time></trkpt><trkpt lat="51.943139" lon="-1.983449"><ele>131.84</ele><time>2011-08-17T09:29:25Z</time></trkpt><trkpt lat="51.943145" lon="-1.983555"><ele>131.84</ele><time>2011-08-17T09:29:34Z</time></trkpt><trkpt lat="51.943142" lon="-1.983686"><ele>129.43</ele><time>2011-08-17T09:29:41Z</time></trkpt><trkpt lat="51.943128" lon="-1.983809"><ele>128.47</ele><time>2011-08-17T09:29:49Z</time></trkpt><trkpt lat="51.943127" lon="-1.983944"><ele>128.47</ele><time>2011-08-17T09:29:58Z</time></trkpt><trkpt lat="51.943125" lon="-1.984069"><ele>128.47</ele><time>2011-08-17T09:30:06Z</time></trkpt><trkpt lat="51.943121" lon="-1.984177"><ele>128.95</ele><time>2011-08-17T09:30:16Z</time></trkpt><trkpt lat="51.943127" lon="-1.984262"><ele>129.43</ele><time>2011-08-17T09:30:23Z</time></trkpt><trkpt lat="51.943114" lon="-1.984373"><ele>130.40</ele><time>2011-08-17T09:30:30Z</time></trkpt><trkpt lat="51.943121" lon="-1.984465"><ele>129.92</ele><time>2011-08-17T09:30:37Z</time></trkpt><trkpt lat="51.943143" lon="-1.984465"><ele>129.43</ele><time>2011-08-17T09:30:44Z</time></trkpt><trkpt lat="51.943160" lon="-1.984476"><ele>127.99</ele><time>2011-08-17T09:30:54Z</time></trkpt><trkpt lat="51.943154" lon="-1.984581"><ele>127.99</ele><time>2011-08-17T09:31:01Z</time></trkpt><trkpt lat="51.943150" lon="-1.984609"><ele>127.99</ele><time>2011-08-17T09:31:03Z</time></trkpt><trkpt lat="51.943145" lon="-1.984653"><ele>128.95</ele><time>2011-08-17T09:31:06Z</time></trkpt><trkpt lat="51.943126" lon="-1.984732"><ele>129.92</ele><time>2011-08-17T09:31:15Z</time></trkpt><trkpt lat="51.943105" lon="-1.984857"><ele>130.88</ele><time>2011-08-17T09:31:25Z</time></trkpt><trkpt lat="51.943104" lon="-1.984995"><ele>129.92</ele><time>2011-08-17T09:31:34Z</time></trkpt><trkpt lat="51.943105" lon="-1.985062"><ele>130.40</ele><time>2011-08-17T09:31:41Z</time></trkpt><trkpt lat="51.943095" lon="-1.985163"><ele>129.92</ele><time>2011-08-17T09:31:48Z</time></trkpt><trkpt lat="51.943107" lon="-1.985216"><ele>131.84</ele><time>2011-08-17T09:31:55Z</time></trkpt><trkpt lat="51.943073" lon="-1.985356"><ele>133.76</ele><time>2011-08-17T09:32:06Z</time></trkpt><trkpt lat="51.943039" lon="-1.985467"><ele>134.72</ele><time>2011-08-17T09:32:16Z</time></trkpt><trkpt lat="51.943036" lon="-1.985485"><ele>134.72</ele><time>2011-08-17T09:32:18Z</time></trkpt><trkpt lat="51.943017" lon="-1.985583"><ele>133.76</ele><time>2011-08-17T09:32:26Z</time></trkpt><trkpt lat="51.943022" lon="-1.985664"><ele>133.28</ele><time>2011-08-17T09:32:33Z</time></trkpt><trkpt lat="51.943003" lon="-1.985764"><ele>132.80</ele><time>2011-08-17T09:32:41Z</time></trkpt><trkpt lat="51.942998" lon="-1.985904"><ele>131.36</ele><time>2011-08-17T09:32:49Z</time></trkpt><trkpt lat="51.942964" lon="-1.985975"><ele>130.88</ele><time>2011-08-17T09:32:56Z</time></trkpt><trkpt lat="51.942926" lon="-1.986030"><ele>130.40</ele><time>2011-08-17T09:33:02Z</time></trkpt><trkpt lat="51.942888" lon="-1.986078"><ele>129.43</ele><time>2011-08-17T09:33:08Z</time></trkpt><trkpt lat="51.942865" lon="-1.986099"><ele>129.43</ele><time>2011-08-17T09:33:14Z</time></trkpt><trkpt lat="51.942838" lon="-1.986143"><ele>129.92</ele><time>2011-08-17T09:33:19Z</time></trkpt><trkpt lat="51.942812" lon="-1.986227"><ele>129.43</ele><time>2011-08-17T09:33:25Z</time></trkpt><trkpt lat="51.942787" lon="-1.986294"><ele>128.47</ele><time>2011-08-17T09:33:31Z</time></trkpt><trkpt lat="51.942783" lon="-1.986369"><ele>127.99</ele><time>2011-08-17T09:33:37Z</time></trkpt><trkpt lat="51.942771" lon="-1.986445"><ele>127.03</ele><time>2011-08-17T09:33:43Z</time></trkpt><trkpt lat="51.942761" lon="-1.986547"><ele>127.03</ele><time>2011-08-17T09:33:50Z</time></trkpt><trkpt lat="51.942744" lon="-1.986639"><ele>126.55</ele><time>2011-08-17T09:33:56Z</time></trkpt><trkpt lat="51.942741" lon="-1.986652"><ele>126.55</ele><time>2011-08-17T09:33:57Z</time></trkpt><trkpt lat="51.942715" lon="-1.986759"><ele>128.47</ele><time>2011-08-17T09:34:05Z</time></trkpt><trkpt lat="51.942686" lon="-1.986898"><ele>128.95</ele><time>2011-08-17T09:34:13Z</time></trkpt><trkpt lat="51.942664" lon="-1.987023"><ele>129.92</ele><time>2011-08-17T09:34:22Z</time></trkpt><trkpt lat="51.942668" lon="-1.987081"><ele>131.36</ele><time>2011-08-17T09:34:26Z</time></trkpt><trkpt lat="51.942653" lon="-1.987219"><ele>133.76</ele><time>2011-08-17T09:34:34Z</time></trkpt><trkpt lat="51.942590" lon="-1.987320"><ele>136.16</ele><time>2011-08-17T09:34:42Z</time></trkpt><trkpt lat="51.942560" lon="-1.987380"><ele>134.72</ele><time>2011-08-17T09:34:46Z</time></trkpt><trkpt lat="51.942539" lon="-1.987561"><ele>134.24</ele><time>2011-08-17T09:34:55Z</time></trkpt><trkpt lat="51.942542" lon="-1.987673"><ele>131.36</ele><time>2011-08-17T09:35:02Z</time></trkpt><trkpt lat="51.942557" lon="-1.987733"><ele>129.92</ele><time>2011-08-17T09:35:05Z</time></trkpt><trkpt lat="51.942600" lon="-1.987852"><ele>127.99</ele><time>2011-08-17T09:35:12Z</time></trkpt><trkpt lat="51.942624" lon="-1.988028"><ele>132.80</ele><time>2011-08-17T09:35:23Z</time></trkpt><trkpt lat="51.942621" lon="-1.988141"><ele>135.68</ele><time>2011-08-17T09:35:29Z</time></trkpt><trkpt lat="51.942648" lon="-1.988245"><ele>137.61</ele><time>2011-08-17T09:35:36Z</time></trkpt><trkpt lat="51.942679" lon="-1.988320"><ele>139.05</ele><time>2011-08-17T09:35:42Z</time></trkpt><trkpt lat="51.942725" lon="-1.988406"><ele>139.53</ele><time>2011-08-17T09:35:49Z</time></trkpt><trkpt lat="51.942761" lon="-1.988509"><ele>139.05</ele><time>2011-08-17T09:35:58Z</time></trkpt><trkpt lat="51.942818" lon="-1.988641"><ele>137.61</ele><time>2011-08-17T09:36:08Z</time></trkpt><trkpt lat="51.942848" lon="-1.988679"><ele>137.61</ele><time>2011-08-17T09:36:13Z</time></trkpt><trkpt lat="51.942896" lon="-1.988757"><ele>137.13</ele><time>2011-08-17T09:36:20Z</time></trkpt><trkpt lat="51.942953" lon="-1.988851"><ele>138.57</ele><time>2011-08-17T09:36:29Z</time></trkpt><trkpt lat="51.943018" lon="-1.988952"><ele>140.97</ele><time>2011-08-17T09:36:37Z</time></trkpt><trkpt lat="51.943092" lon="-1.989042"><ele>142.89</ele><time>2011-08-17T09:36:45Z</time></trkpt><trkpt lat="51.943129" lon="-1.989084"><ele>142.89</ele><time>2011-08-17T09:36:51Z</time></trkpt><trkpt lat="51.943192" lon="-1.989135"><ele>143.37</ele><time>2011-08-17T09:36:58Z</time></trkpt><trkpt lat="51.943257" lon="-1.989188"><ele>142.89</ele><time>2011-08-17T09:37:06Z</time></trkpt><trkpt lat="51.943286" lon="-1.989242"><ele>142.89</ele><time>2011-08-17T09:37:12Z</time></trkpt><trkpt lat="51.943290" lon="-1.989235"><ele>142.89</ele><time>2011-08-17T09:37:23Z</time></trkpt><trkpt lat="51.943279" lon="-1.989262"><ele>142.41</ele><time>2011-08-17T09:37:39Z</time></trkpt><trkpt lat="51.943239" lon="-1.989299"><ele>142.41</ele><time>2011-08-17T09:37:46Z</time></trkpt><trkpt lat="51.943223" lon="-1.989344"><ele>141.45</ele><time>2011-08-17T09:37:54Z</time></trkpt><trkpt lat="51.943211" lon="-1.989358"><ele>141.45</ele><time>2011-08-17T09:37:57Z</time></trkpt><trkpt lat="51.943193" lon="-1.989415"><ele>140.97</ele><time>2011-08-17T09:38:05Z</time></trkpt><trkpt lat="51.943195" lon="-1.989499"><ele>140.97</ele><time>2011-08-17T09:38:11Z</time></trkpt><trkpt lat="51.943159" lon="-1.989551"><ele>140.49</ele><time>2011-08-17T09:38:19Z</time></trkpt><trkpt lat="51.943152" lon="-1.989651"><ele>138.57</ele><time>2011-08-17T09:38:32Z</time></trkpt><trkpt lat="51.943130" lon="-1.989753"><ele>136.64</ele><time>2011-08-17T09:38:44Z</time></trkpt><trkpt lat="51.943082" lon="-1.989799"><ele>134.72</ele><time>2011-08-17T09:38:53Z</time></trkpt><trkpt lat="51.943029" lon="-1.989889"><ele>132.80</ele><time>2011-08-17T09:39:02Z</time></trkpt><trkpt lat="51.942983" lon="-1.989949"><ele>131.36</ele><time>2011-08-17T09:39:10Z</time></trkpt><trkpt lat="51.942898" lon="-1.990015"><ele>130.40</ele><time>2011-08-17T09:39:21Z</time></trkpt><trkpt lat="51.942840" lon="-1.990126"><ele>132.32</ele><time>2011-08-17T09:39:30Z</time></trkpt><trkpt lat="51.942814" lon="-1.990229"><ele>134.24</ele><time>2011-08-17T09:39:38Z</time></trkpt><trkpt lat="51.942782" lon="-1.990308"><ele>135.68</ele><time>2011-08-17T09:39:44Z</time></trkpt><trkpt lat="51.942753" lon="-1.990360"><ele>135.68</ele><time>2011-08-17T09:39:50Z</time></trkpt><trkpt lat="51.942714" lon="-1.990441"><ele>135.68</ele><time>2011-08-17T09:39:59Z</time></trkpt><trkpt lat="51.942692" lon="-1.990483"><ele>134.24</ele><time>2011-08-17T09:40:07Z</time></trkpt><trkpt lat="51.942688" lon="-1.990520"><ele>134.24</ele><time>2011-08-17T09:40:10Z</time></trkpt><trkpt lat="51.942733" lon="-1.990671"><ele>135.68</ele><time>2011-08-17T09:40:19Z</time></trkpt><trkpt lat="51.942759" lon="-1.990750"><ele>136.64</ele><time>2011-08-17T09:40:26Z</time></trkpt><trkpt lat="51.942769" lon="-1.990775"><ele>136.64</ele><time>2011-08-17T09:40:29Z</time></trkpt><trkpt lat="51.942793" lon="-1.990880"><ele>136.64</ele><time>2011-08-17T09:40:36Z</time></trkpt><trkpt lat="51.942814" lon="-1.990984"><ele>137.13</ele><time>2011-08-17T09:40:43Z</time></trkpt><trkpt lat="51.942824" lon="-1.991014"><ele>137.13</ele><time>2011-08-17T09:40:45Z</time></trkpt><trkpt lat="51.942829" lon="-1.991173"><ele>137.61</ele><time>2011-08-17T09:40:54Z</time></trkpt><trkpt lat="51.942819" lon="-1.991303"><ele>137.61</ele><time>2011-08-17T09:41:02Z</time></trkpt><trkpt lat="51.942803" lon="-1.991421"><ele>138.09</ele><time>2011-08-17T09:41:10Z</time></trkpt><trkpt lat="51.942774" lon="-1.991491"><ele>137.61</ele><time>2011-08-17T09:41:17Z</time></trkpt><trkpt lat="51.942773" lon="-1.991497"><ele>137.61</ele><time>2011-08-17T09:41:19Z</time></trkpt><trkpt lat="51.942740" lon="-1.991544"><ele>137.61</ele><time>2011-08-17T09:41:27Z</time></trkpt><trkpt lat="51.942736" lon="-1.991572"><ele>138.09</ele><time>2011-08-17T09:41:36Z</time></trkpt><trkpt lat="51.942764" lon="-1.991555"><ele>137.13</ele><time>2011-08-17T09:41:45Z</time></trkpt><trkpt lat="51.942774" lon="-1.991565"><ele>137.13</ele><time>2011-08-17T09:41:53Z</time></trkpt><trkpt lat="51.942788" lon="-1.991570"><ele>137.13</ele><time>2011-08-17T09:42:02Z</time></trkpt><trkpt lat="51.942839" lon="-1.991602"><ele>136.64</ele><time>2011-08-17T09:42:10Z</time></trkpt><trkpt lat="51.942841" lon="-1.991644"><ele>135.20</ele><time>2011-08-17T09:42:20Z</time></trkpt><trkpt lat="51.942840" lon="-1.991648"><ele>135.20</ele><time>2011-08-17T09:42:37Z</time></trkpt><trkpt lat="51.942838" lon="-1.991647"><ele>135.20</ele><time>2011-08-17T09:42:45Z</time></trkpt><trkpt lat="51.942835" lon="-1.991647"><ele>136.16</ele><time>2011-08-17T09:42:53Z</time></trkpt><trkpt lat="51.942827" lon="-1.991778"><ele>135.68</ele><time>2011-08-17T09:43:02Z</time></trkpt><trkpt lat="51.942819" lon="-1.991897"><ele>134.72</ele><time>2011-08-17T09:43:09Z</time></trkpt><trkpt lat="51.942790" lon="-1.992011"><ele>135.68</ele><time>2011-08-17T09:43:16Z</time></trkpt><trkpt lat="51.942776" lon="-1.992131"><ele>135.68</ele><time>2011-08-17T09:43:24Z</time></trkpt><trkpt lat="51.942743" lon="-1.992226"><ele>136.64</ele><time>2011-08-17T09:43:32Z</time></trkpt><trkpt lat="51.942705" lon="-1.992243"><ele>139.05</ele><time>2011-08-17T09:43:42Z</time></trkpt><trkpt lat="51.942655" lon="-1.992222"><ele>142.41</ele><time>2011-08-17T09:43:50Z</time></trkpt><trkpt lat="51.942631" lon="-1.992250"><ele>147.22</ele><time>2011-08-17T09:44:03Z</time></trkpt><trkpt lat="51.942606" lon="-1.992267"><ele>146.74</ele><time>2011-08-17T09:44:10Z</time></trkpt><trkpt lat="51.942584" lon="-1.992359"><ele>146.26</ele><time>2011-08-17T09:44:18Z</time></trkpt><trkpt lat="51.942542" lon="-1.992492"><ele>145.30</ele><time>2011-08-17T09:44:25Z</time></trkpt><trkpt lat="51.942518" lon="-1.992602"><ele>143.85</ele><time>2011-08-17T09:44:33Z</time></trkpt><trkpt lat="51.942475" lon="-1.992685"><ele>143.37</ele><time>2011-08-17T09:44:41Z</time></trkpt><trkpt lat="51.942436" lon="-1.992772"><ele>143.37</ele><time>2011-08-17T09:44:49Z</time></trkpt><trkpt lat="51.942412" lon="-1.992891"><ele>142.89</ele><time>2011-08-17T09:44:57Z</time></trkpt><trkpt lat="51.942400" lon="-1.992928"><ele>143.37</ele><time>2011-08-17T09:45:03Z</time></trkpt><trkpt lat="51.942366" lon="-1.993020"><ele>143.85</ele><time>2011-08-17T09:45:12Z</time></trkpt><trkpt lat="51.942339" lon="-1.993101"><ele>143.85</ele><time>2011-08-17T09:45:19Z</time></trkpt><trkpt lat="51.942303" lon="-1.993194"><ele>144.34</ele><time>2011-08-17T09:45:26Z</time></trkpt><trkpt lat="51.942274" lon="-1.993302"><ele>144.34</ele><time>2011-08-17T09:45:33Z</time></trkpt><trkpt lat="51.942239" lon="-1.993416"><ele>144.34</ele><time>2011-08-17T09:45:41Z</time></trkpt><trkpt lat="51.942203" lon="-1.993538"><ele>144.82</ele><time>2011-08-17T09:45:49Z</time></trkpt><trkpt lat="51.942178" lon="-1.993637"><ele>145.78</ele><time>2011-08-17T09:45:56Z</time></trkpt><trkpt lat="51.942148" lon="-1.993742"><ele>145.78</ele><time>2011-08-17T09:46:04Z</time></trkpt><trkpt lat="51.942117" lon="-1.993854"><ele>145.78</ele><time>2011-08-17T09:46:12Z</time></trkpt><trkpt lat="51.942076" lon="-1.993978"><ele>145.30</ele><time>2011-08-17T09:46:19Z</time></trkpt><trkpt lat="51.942048" lon="-1.994062"><ele>145.30</ele><time>2011-08-17T09:46:26Z</time></trkpt><trkpt lat="51.942007" lon="-1.994164"><ele>145.78</ele><time>2011-08-17T09:46:34Z</time></trkpt><trkpt lat="51.941973" lon="-1.994248"><ele>145.78</ele><time>2011-08-17T09:46:41Z</time></trkpt><trkpt lat="51.941945" lon="-1.994321"><ele>146.26</ele><time>2011-08-17T09:46:48Z</time></trkpt><trkpt lat="51.941942" lon="-1.994333"><ele>146.74</ele><time>2011-08-17T09:46:49Z</time></trkpt><trkpt lat="51.941902" lon="-1.994446"><ele>146.74</ele><time>2011-08-17T09:46:58Z</time></trkpt><trkpt lat="51.941867" lon="-1.994540"><ele>147.22</ele><time>2011-08-17T09:47:06Z</time></trkpt><trkpt lat="51.941852" lon="-1.994608"><ele>147.70</ele><time>2011-08-17T09:47:14Z</time></trkpt><trkpt lat="51.941831" lon="-1.994689"><ele>147.70</ele><time>2011-08-17T09:47:21Z</time></trkpt><trkpt lat="51.941830" lon="-1.994713"><ele>149.62</ele><time>2011-08-17T09:47:33Z</time></trkpt><trkpt lat="51.941827" lon="-1.994747"><ele>150.10</ele><time>2011-08-17T09:47:43Z</time></trkpt><trkpt lat="51.941796" lon="-1.994822"><ele>150.10</ele><time>2011-08-17T09:47:50Z</time></trkpt><trkpt lat="51.941776" lon="-1.994899"><ele>150.10</ele><time>2011-08-17T09:47:57Z</time></trkpt><trkpt lat="51.941742" lon="-1.995002"><ele>149.62</ele><time>2011-08-17T09:48:04Z</time></trkpt><trkpt lat="51.941710" lon="-1.995094"><ele>149.62</ele><time>2011-08-17T09:48:12Z</time></trkpt><trkpt lat="51.941697" lon="-1.995168"><ele>150.10</ele><time>2011-08-17T09:48:17Z</time></trkpt><trkpt lat="51.941672" lon="-1.995253"><ele>150.10</ele><time>2011-08-17T09:48:23Z</time></trkpt><trkpt lat="51.941634" lon="-1.995362"><ele>150.10</ele><time>2011-08-17T09:48:30Z</time></trkpt><trkpt lat="51.941616" lon="-1.995402"><ele>149.62</ele><time>2011-08-17T09:48:33Z</time></trkpt><trkpt lat="51.941553" lon="-1.995541"><ele>149.62</ele><time>2011-08-17T09:48:44Z</time></trkpt><trkpt lat="51.941518" lon="-1.995674"><ele>149.14</ele><time>2011-08-17T09:48:53Z</time></trkpt><trkpt lat="51.941486" lon="-1.995749"><ele>149.14</ele><time>2011-08-17T09:49:01Z</time></trkpt><trkpt lat="51.941440" lon="-1.995886"><ele>149.14</ele><time>2011-08-17T09:49:11Z</time></trkpt><trkpt lat="51.941404" lon="-1.995994"><ele>148.66</ele><time>2011-08-17T09:49:19Z</time></trkpt><trkpt lat="51.941365" lon="-1.996123"><ele>148.66</ele><time>2011-08-17T09:49:28Z</time></trkpt><trkpt lat="51.941326" lon="-1.996237"><ele>149.14</ele><time>2011-08-17T09:49:36Z</time></trkpt><trkpt lat="51.941285" lon="-1.996342"><ele>149.14</ele><time>2011-08-17T09:49:44Z</time></trkpt><trkpt lat="51.941249" lon="-1.996470"><ele>149.62</ele><time>2011-08-17T09:49:53Z</time></trkpt><trkpt lat="51.941206" lon="-1.996605"><ele>150.10</ele><time>2011-08-17T09:50:02Z</time></trkpt><trkpt lat="51.941171" lon="-1.996726"><ele>150.10</ele><time>2011-08-17T09:50:11Z</time></trkpt><trkpt lat="51.941134" lon="-1.996835"><ele>150.10</ele><time>2011-08-17T09:50:20Z</time></trkpt><trkpt lat="51.941115" lon="-1.996937"><ele>149.62</ele><time>2011-08-17T09:50:27Z</time></trkpt><trkpt lat="51.941172" lon="-1.997048"><ele>150.10</ele><time>2011-08-17T09:50:37Z</time></trkpt><trkpt lat="51.941182" lon="-1.997080"><ele>149.62</ele><time>2011-08-17T09:50:46Z</time></trkpt><trkpt lat="51.941257" lon="-1.997187"><ele>149.62</ele><time>2011-08-17T09:50:56Z</time></trkpt><trkpt lat="51.941293" lon="-1.997263"><ele>150.58</ele><time>2011-08-17T09:51:03Z</time></trkpt><trkpt lat="51.941318" lon="-1.997329"><ele>151.54</ele><time>2011-08-17T09:51:10Z</time></trkpt><trkpt lat="51.941324" lon="-1.997326"><ele>152.99</ele><time>2011-08-17T09:51:28Z</time></trkpt><trkpt lat="51.941310" lon="-1.997360"><ele>152.99</ele><time>2011-08-17T09:51:37Z</time></trkpt><trkpt lat="51.941310" lon="-1.997361"><ele>153.95</ele><time>2011-08-17T09:51:55Z</time></trkpt><trkpt lat="51.941319" lon="-1.997376"><ele>152.99</ele><time>2011-08-17T09:52:03Z</time></trkpt><trkpt lat="51.941315" lon="-1.997386"><ele>152.51</ele><time>2011-08-17T09:52:23Z</time></trkpt><trkpt lat="51.941316" lon="-1.997382"><ele>152.51</ele><time>2011-08-17T09:52:56Z</time></trkpt><trkpt lat="51.941324" lon="-1.997383"><ele>152.03</ele><time>2011-08-17T09:54:07Z</time></trkpt><trkpt lat="51.941325" lon="-1.997390"><ele>152.03</ele><time>2011-08-17T09:55:14Z</time></trkpt><trkpt lat="51.941332" lon="-1.997380"><ele>150.58</ele><time>2011-08-17T10:01:38Z</time></trkpt><trkpt lat="51.941336" lon="-1.997375"><ele>150.10</ele><time>2011-08-17T10:03:09Z</time></trkpt><trkpt lat="51.941329" lon="-1.997353"><ele>149.14</ele><time>2011-08-17T10:03:34Z</time></trkpt><trkpt lat="51.941330" lon="-1.997344"><ele>149.14</ele><time>2011-08-17T10:05:59Z</time></trkpt><trkpt lat="51.941314" lon="-1.997336"><ele>148.66</ele><time>2011-08-17T10:06:22Z</time></trkpt><trkpt lat="51.941311" lon="-1.997331"><ele>148.66</ele><time>2011-08-17T10:06:45Z</time></trkpt><trkpt lat="51.941310" lon="-1.997326"><ele>148.18</ele><time>2011-08-17T10:07:01Z</time></trkpt><trkpt lat="51.941311" lon="-1.997313"><ele>148.66</ele><time>2011-08-17T10:07:24Z</time></trkpt><trkpt lat="51.941315" lon="-1.997311"><ele>148.66</ele><time>2011-08-17T10:09:16Z</time></trkpt><trkpt lat="51.941315" lon="-1.997314"><ele>149.14</ele><time>2011-08-17T10:10:45Z</time></trkpt><trkpt lat="51.941315" lon="-1.997305"><ele>149.14</ele><time>2011-08-17T10:11:06Z</time></trkpt><trkpt lat="51.941317" lon="-1.997305"><ele>148.18</ele><time>2011-08-17T10:11:50Z</time></trkpt><trkpt lat="51.941312" lon="-1.997305"><ele>148.66</ele><time>2011-08-17T10:12:05Z</time></trkpt><trkpt lat="51.941256" lon="-1.997307"><ele>148.18</ele><time>2011-08-17T10:12:11Z</time></trkpt><trkpt lat="51.941159" lon="-1.997367"><ele>149.62</ele><time>2011-08-17T10:12:21Z</time></trkpt><trkpt lat="51.941091" lon="-1.997424"><ele>151.06</ele><time>2011-08-17T10:12:28Z</time></trkpt><trkpt lat="51.941055" lon="-1.997542"><ele>151.54</ele><time>2011-08-17T10:12:34Z</time></trkpt><trkpt lat="51.941039" lon="-1.997585"><ele>152.03</ele><time>2011-08-17T10:12:37Z</time></trkpt><trkpt lat="51.940977" lon="-1.997616"><ele>152.51</ele><time>2011-08-17T10:12:46Z</time></trkpt><trkpt lat="51.940983" lon="-1.997644"><ele>151.54</ele><time>2011-08-17T10:12:54Z</time></trkpt><trkpt lat="51.940982" lon="-1.997643"><ele>151.06</ele><time>2011-08-17T10:12:56Z</time></trkpt><trkpt lat="51.940942" lon="-1.997634"><ele>150.58</ele><time>2011-08-17T10:13:01Z</time></trkpt><trkpt lat="51.940904" lon="-1.997703"><ele>150.10</ele><time>2011-08-17T10:13:06Z</time></trkpt><trkpt lat="51.940908" lon="-1.997797"><ele>149.62</ele><time>2011-08-17T10:13:13Z</time></trkpt><trkpt lat="51.940925" lon="-1.997866"><ele>148.66</ele><time>2011-08-17T10:13:20Z</time></trkpt><trkpt lat="51.940892" lon="-1.997890"><ele>146.26</ele><time>2011-08-17T10:13:29Z</time></trkpt><trkpt lat="51.940873" lon="-1.997942"><ele>146.74</ele><time>2011-08-17T10:13:34Z</time></trkpt><trkpt lat="51.940814" lon="-1.998052"><ele>149.62</ele><time>2011-08-17T10:13:41Z</time></trkpt><trkpt lat="51.940803" lon="-1.998106"><ele>150.10</ele><time>2011-08-17T10:13:44Z</time></trkpt><trkpt lat="51.940785" lon="-1.998158"><ele>150.58</ele><time>2011-08-17T10:13:48Z</time></trkpt><trkpt lat="51.940747" lon="-1.998324"><ele>151.54</ele><time>2011-08-17T10:13:57Z</time></trkpt><trkpt lat="51.940736" lon="-1.998507"><ele>151.06</ele><time>2011-08-17T10:14:06Z</time></trkpt><trkpt lat="51.940726" lon="-1.998692"><ele>151.06</ele><time>2011-08-17T10:14:16Z</time></trkpt><trkpt lat="51.940707" lon="-1.998866"><ele>152.51</ele><time>2011-08-17T10:14:25Z</time></trkpt><trkpt lat="51.940689" lon="-1.998992"><ele>152.51</ele><time>2011-08-17T10:14:32Z</time></trkpt><trkpt lat="51.940641" lon="-1.999176"><ele>153.95</ele><time>2011-08-17T10:14:43Z</time></trkpt><trkpt lat="51.940625" lon="-1.999366"><ele>154.91</ele><time>2011-08-17T10:14:53Z</time></trkpt><trkpt lat="51.940613" lon="-1.999465"><ele>155.39</ele><time>2011-08-17T10:14:59Z</time></trkpt><trkpt lat="51.940612" lon="-1.999499"><ele>155.87</ele><time>2011-08-17T10:15:01Z</time></trkpt><trkpt lat="51.940599" lon="-1.999561"><ele>156.35</ele><time>2011-08-17T10:15:05Z</time></trkpt><trkpt lat="51.940584" lon="-1.999643"><ele>157.31</ele><time>2011-08-17T10:15:12Z</time></trkpt><trkpt lat="51.940570" lon="-1.999738"><ele>158.27</ele><time>2011-08-17T10:15:20Z</time></trkpt><trkpt lat="51.940550" lon="-1.999788"><ele>158.75</ele><time>2011-08-17T10:15:25Z</time></trkpt><trkpt lat="51.940503" lon="-1.999867"><ele>159.24</ele><time>2011-08-17T10:15:35Z</time></trkpt><trkpt lat="51.940486" lon="-1.999883"><ele>159.24</ele><time>2011-08-17T10:15:51Z</time></trkpt><trkpt lat="51.940490" lon="-1.999884"><ele>158.75</ele><time>2011-08-17T10:16:00Z</time></trkpt><trkpt lat="51.940475" lon="-1.999891"><ele>159.24</ele><time>2011-08-17T10:16:07Z</time></trkpt><trkpt lat="51.940451" lon="-1.999919"><ele>158.75</ele><time>2011-08-17T10:16:14Z</time></trkpt><trkpt lat="51.940416" lon="-2.000026"><ele>158.27</ele><time>2011-08-17T10:16:23Z</time></trkpt><trkpt lat="51.940357" lon="-2.000143"><ele>157.31</ele><time>2011-08-17T10:16:36Z</time></trkpt><trkpt lat="51.940303" lon="-2.000278"><ele>156.35</ele><time>2011-08-17T10:16:47Z</time></trkpt><trkpt lat="51.940226" lon="-2.000439"><ele>156.35</ele><time>2011-08-17T10:16:59Z</time></trkpt><trkpt lat="51.940181" lon="-2.000521"><ele>157.79</ele><time>2011-08-17T10:17:07Z</time></trkpt><trkpt lat="51.940133" lon="-2.000615"><ele>160.68</ele><time>2011-08-17T10:17:15Z</time></trkpt><trkpt lat="51.940102" lon="-2.000672"><ele>161.64</ele><time>2011-08-17T10:17:22Z</time></trkpt><trkpt lat="51.940065" lon="-2.000803"><ele>162.60</ele><time>2011-08-17T10:17:33Z</time></trkpt><trkpt lat="51.940043" lon="-2.000904"><ele>163.56</ele><time>2011-08-17T10:17:41Z</time></trkpt><trkpt lat="51.940005" lon="-2.000985"><ele>163.56</ele><time>2011-08-17T10:17:49Z</time></trkpt><trkpt lat="51.939961" lon="-2.001043"><ele>164.52</ele><time>2011-08-17T10:18:04Z</time></trkpt><trkpt lat="51.939954" lon="-2.001076"><ele>164.52</ele><time>2011-08-17T10:18:18Z</time></trkpt><trkpt lat="51.939953" lon="-2.001081"><ele>164.04</ele><time>2011-08-17T10:18:29Z</time></trkpt><trkpt lat="51.939944" lon="-2.001094"><ele>165.00</ele><time>2011-08-17T10:18:32Z</time></trkpt><trkpt lat="51.939905" lon="-2.001056"><ele>166.93</ele><time>2011-08-17T10:18:41Z</time></trkpt><trkpt lat="51.939888" lon="-2.001061"><ele>167.89</ele><time>2011-08-17T10:19:40Z</time></trkpt><trkpt lat="51.939887" lon="-2.001099"><ele>167.89</ele><time>2011-08-17T10:20:04Z</time></trkpt><trkpt lat="51.939884" lon="-2.001093"><ele>168.85</ele><time>2011-08-17T10:20:24Z</time></trkpt><trkpt lat="51.939883" lon="-2.001048"><ele>170.77</ele><time>2011-08-17T10:20:33Z</time></trkpt><trkpt lat="51.939888" lon="-2.001035"><ele>171.25</ele><time>2011-08-17T10:20:35Z</time></trkpt><trkpt lat="51.939898" lon="-2.000936"><ele>173.17</ele><time>2011-08-17T10:20:41Z</time></trkpt><trkpt lat="51.939815" lon="-2.000766"><ele>171.73</ele><time>2011-08-17T10:20:47Z</time></trkpt><trkpt lat="51.939800" lon="-2.000739"><ele>172.21</ele><time>2011-08-17T10:20:48Z</time></trkpt><trkpt lat="51.939698" lon="-2.000579"><ele>171.25</ele><time>2011-08-17T10:20:56Z</time></trkpt><trkpt lat="51.939624" lon="-2.000471"><ele>170.29</ele><time>2011-08-17T10:21:02Z</time></trkpt><trkpt lat="51.939581" lon="-2.000386"><ele>170.29</ele><time>2011-08-17T10:21:08Z</time></trkpt><trkpt lat="51.939570" lon="-2.000334"><ele>170.29</ele><time>2011-08-17T10:21:11Z</time></trkpt><trkpt lat="51.939541" lon="-2.000294"><ele>170.29</ele><time>2011-08-17T10:21:14Z</time></trkpt><trkpt lat="51.939526" lon="-2.000230"><ele>171.25</ele><time>2011-08-17T10:21:20Z</time></trkpt><trkpt lat="51.939518" lon="-2.000223"><ele>170.77</ele><time>2011-08-17T10:21:28Z</time></trkpt><trkpt lat="51.939499" lon="-2.000194"><ele>170.77</ele><time>2011-08-17T10:21:33Z</time></trkpt><trkpt lat="51.939490" lon="-2.000168"><ele>171.25</ele><time>2011-08-17T10:21:39Z</time></trkpt><trkpt lat="51.939483" lon="-2.000147"><ele>171.25</ele><time>2011-08-17T10:21:41Z</time></trkpt><trkpt lat="51.939448" lon="-2.000070"><ele>171.25</ele><time>2011-08-17T10:21:49Z</time></trkpt><trkpt lat="51.939424" lon="-2.000031"><ele>172.21</ele><time>2011-08-17T10:21:57Z</time></trkpt><trkpt lat="51.939381" lon="-1.999939"><ele>174.14</ele><time>2011-08-17T10:22:06Z</time></trkpt><trkpt lat="51.939341" lon="-1.999881"><ele>175.10</ele><time>2011-08-17T10:22:13Z</time></trkpt><trkpt lat="51.939322" lon="-1.999850"><ele>176.06</ele><time>2011-08-17T10:22:17Z</time></trkpt><trkpt lat="51.939320" lon="-1.999767"><ele>175.58</ele><time>2011-08-17T10:22:22Z</time></trkpt><trkpt lat="51.939295" lon="-1.999687"><ele>175.58</ele><time>2011-08-17T10:22:30Z</time></trkpt><trkpt lat="51.939290" lon="-1.999641"><ele>175.58</ele><time>2011-08-17T10:22:36Z</time></trkpt><trkpt lat="51.939267" lon="-1.999587"><ele>176.06</ele><time>2011-08-17T10:22:45Z</time></trkpt><trkpt lat="51.939254" lon="-1.999539"><ele>177.02</ele><time>2011-08-17T10:22:55Z</time></trkpt><trkpt lat="51.939240" lon="-1.999475"><ele>177.98</ele><time>2011-08-17T10:23:11Z</time></trkpt><trkpt lat="51.939223" lon="-1.999427"><ele>178.46</ele><time>2011-08-17T10:23:18Z</time></trkpt><trkpt lat="51.939204" lon="-1.999346"><ele>178.94</ele><time>2011-08-17T10:23:25Z</time></trkpt><trkpt lat="51.939173" lon="-1.999283"><ele>178.94</ele><time>2011-08-17T10:23:31Z</time></trkpt><trkpt lat="51.939143" lon="-1.999194"><ele>179.42</ele><time>2011-08-17T10:23:38Z</time></trkpt><trkpt lat="51.939120" lon="-1.999087"><ele>179.90</ele><time>2011-08-17T10:23:45Z</time></trkpt><trkpt lat="51.939084" lon="-1.998965"><ele>180.87</ele><time>2011-08-17T10:23:53Z</time></trkpt><trkpt lat="51.939055" lon="-1.998857"><ele>180.38</ele><time>2011-08-17T10:24:01Z</time></trkpt><trkpt lat="51.939027" lon="-1.998785"><ele>179.90</ele><time>2011-08-17T10:24:07Z</time></trkpt><trkpt lat="51.938991" lon="-1.998679"><ele>179.90</ele><time>2011-08-17T10:24:15Z</time></trkpt><trkpt lat="51.938961" lon="-1.998554"><ele>180.87</ele><time>2011-08-17T10:24:23Z</time></trkpt><trkpt lat="51.938932" lon="-1.998457"><ele>180.87</ele><time>2011-08-17T10:24:30Z</time></trkpt><trkpt lat="51.938892" lon="-1.998350"><ele>180.38</ele><time>2011-08-17T10:24:38Z</time></trkpt><trkpt lat="51.938847" lon="-1.998302"><ele>177.50</ele><time>2011-08-17T10:24:45Z</time></trkpt><trkpt lat="51.938793" lon="-1.998240"><ele>177.98</ele><time>2011-08-17T10:24:55Z</time></trkpt><trkpt lat="51.938766" lon="-1.998171"><ele>178.46</ele><time>2011-08-17T10:25:02Z</time></trkpt><trkpt lat="51.938740" lon="-1.998162"><ele>179.42</ele><time>2011-08-17T10:25:08Z</time></trkpt><trkpt lat="51.938731" lon="-1.998173"><ele>179.42</ele><time>2011-08-17T10:25:15Z</time></trkpt><trkpt lat="51.938711" lon="-1.998107"><ele>179.42</ele><time>2011-08-17T10:25:23Z</time></trkpt><trkpt lat="51.938676" lon="-1.998039"><ele>178.46</ele><time>2011-08-17T10:25:30Z</time></trkpt><trkpt lat="51.938671" lon="-1.998030"><ele>178.46</ele><time>2011-08-17T10:25:31Z</time></trkpt><trkpt lat="51.938652" lon="-1.998001"><ele>178.94</ele><time>2011-08-17T10:25:38Z</time></trkpt><trkpt lat="51.938648" lon="-1.998009"><ele>177.50</ele><time>2011-08-17T10:26:01Z</time></trkpt><trkpt lat="51.938648" lon="-1.998001"><ele>177.02</ele><time>2011-08-17T10:26:02Z</time></trkpt><trkpt lat="51.938638" lon="-1.997885"><ele>177.02</ele><time>2011-08-17T10:26:10Z</time></trkpt><trkpt lat="51.938637" lon="-1.997857"><ele>177.02</ele><time>2011-08-17T10:26:12Z</time></trkpt><trkpt lat="51.938626" lon="-1.997772"><ele>177.98</ele><time>2011-08-17T10:26:19Z</time></trkpt><trkpt lat="51.938605" lon="-1.997682"><ele>178.94</ele><time>2011-08-17T10:26:26Z</time></trkpt><trkpt lat="51.938583" lon="-1.997596"><ele>179.42</ele><time>2011-08-17T10:26:33Z</time></trkpt><trkpt lat="51.938567" lon="-1.997575"><ele>179.42</ele><time>2011-08-17T10:26:39Z</time></trkpt><trkpt lat="51.938543" lon="-1.997622"><ele>179.90</ele><time>2011-08-17T10:26:50Z</time></trkpt><trkpt lat="51.938551" lon="-1.997639"><ele>180.38</ele><time>2011-08-17T10:27:00Z</time></trkpt><trkpt lat="51.938552" lon="-1.997572"><ele>179.90</ele><time>2011-08-17T10:27:07Z</time></trkpt><trkpt lat="51.938531" lon="-1.997467"><ele>179.90</ele><time>2011-08-17T10:27:14Z</time></trkpt><trkpt lat="51.938506" lon="-1.997345"><ele>179.90</ele><time>2011-08-17T10:27:21Z</time></trkpt><trkpt lat="51.938495" lon="-1.997269"><ele>181.35</ele><time>2011-08-17T10:27:27Z</time></trkpt><trkpt lat="51.938479" lon="-1.997193"><ele>182.79</ele><time>2011-08-17T10:27:33Z</time></trkpt><trkpt lat="51.938456" lon="-1.997097"><ele>183.27</ele><time>2011-08-17T10:27:40Z</time></trkpt><trkpt lat="51.938439" lon="-1.997014"><ele>183.27</ele><time>2011-08-17T10:27:46Z</time></trkpt><trkpt lat="51.938440" lon="-1.996909"><ele>182.79</ele><time>2011-08-17T10:27:53Z</time></trkpt><trkpt lat="51.938454" lon="-1.996827"><ele>181.83</ele><time>2011-08-17T10:28:00Z</time></trkpt><trkpt lat="51.938464" lon="-1.996839"><ele>180.87</ele><time>2011-08-17T10:28:07Z</time></trkpt><trkpt lat="51.938453" lon="-1.996805"><ele>180.38</ele><time>2011-08-17T10:28:20Z</time></trkpt><trkpt lat="51.938452" lon="-1.996790"><ele>180.38</ele><time>2011-08-17T10:28:25Z</time></trkpt><trkpt lat="51.938480" lon="-1.996734"><ele>179.90</ele><time>2011-08-17T10:28:34Z</time></trkpt><trkpt lat="51.938487" lon="-1.996679"><ele>180.38</ele><time>2011-08-17T10:28:39Z</time></trkpt><trkpt lat="51.938483" lon="-1.996567"><ele>180.87</ele><time>2011-08-17T10:28:47Z</time></trkpt><trkpt lat="51.938471" lon="-1.996460"><ele>180.87</ele><time>2011-08-17T10:28:54Z</time></trkpt><trkpt lat="51.938462" lon="-1.996392"><ele>180.87</ele><time>2011-08-17T10:28:59Z</time></trkpt><trkpt lat="51.938453" lon="-1.996295"><ele>181.35</ele><time>2011-08-17T10:29:06Z</time></trkpt><trkpt lat="51.938433" lon="-1.996191"><ele>181.35</ele><time>2011-08-17T10:29:13Z</time></trkpt><trkpt lat="51.938407" lon="-1.996093"><ele>180.87</ele><time>2011-08-17T10:29:20Z</time></trkpt><trkpt lat="51.938389" lon="-1.996020"><ele>180.38</ele><time>2011-08-17T10:29:26Z</time></trkpt><trkpt lat="51.938377" lon="-1.995940"><ele>179.90</ele><time>2011-08-17T10:29:33Z</time></trkpt><trkpt lat="51.938363" lon="-1.995905"><ele>178.46</ele><time>2011-08-17T10:29:44Z</time></trkpt><trkpt lat="51.938338" lon="-1.995761"><ele>177.50</ele><time>2011-08-17T10:29:52Z</time></trkpt><trkpt lat="51.938302" lon="-1.995636"><ele>177.02</ele><time>2011-08-17T10:30:00Z</time></trkpt><trkpt lat="51.938272" lon="-1.995534"><ele>176.54</ele><time>2011-08-17T10:30:07Z</time></trkpt><trkpt lat="51.938254" lon="-1.995446"><ele>176.54</ele><time>2011-08-17T10:30:13Z</time></trkpt><trkpt lat="51.938234" lon="-1.995343"><ele>176.06</ele><time>2011-08-17T10:30:20Z</time></trkpt><trkpt lat="51.938208" lon="-1.995251"><ele>175.10</ele><time>2011-08-17T10:30:27Z</time></trkpt><trkpt lat="51.938182" lon="-1.995152"><ele>174.62</ele><time>2011-08-17T10:30:34Z</time></trkpt><trkpt lat="51.938161" lon="-1.995054"><ele>173.66</ele><time>2011-08-17T10:30:41Z</time></trkpt><trkpt lat="51.938125" lon="-1.994931"><ele>172.69</ele><time>2011-08-17T10:30:49Z</time></trkpt><trkpt lat="51.938089" lon="-1.994823"><ele>171.73</ele><time>2011-08-17T10:30:56Z</time></trkpt><trkpt lat="51.938061" lon="-1.994735"><ele>169.81</ele><time>2011-08-17T10:31:04Z</time></trkpt><trkpt lat="51.938058" lon="-1.994680"><ele>168.85</ele><time>2011-08-17T10:31:08Z</time></trkpt><trkpt lat="51.938039" lon="-1.994569"><ele>166.93</ele><time>2011-08-17T10:31:16Z</time></trkpt><trkpt lat="51.938000" lon="-1.994509"><ele>165.00</ele><time>2011-08-17T10:31:23Z</time></trkpt><trkpt lat="51.937999" lon="-1.994510"><ele>165.00</ele><time>2011-08-17T10:31:32Z</time></trkpt><trkpt lat="51.937983" lon="-1.994434"><ele>164.04</ele><time>2011-08-17T10:31:40Z</time></trkpt><trkpt lat="51.937978" lon="-1.994426"><ele>164.04</ele><time>2011-08-17T10:31:41Z</time></trkpt><trkpt lat="51.937925" lon="-1.994330"><ele>162.60</ele><time>2011-08-17T10:31:51Z</time></trkpt><trkpt lat="51.937883" lon="-1.994240"><ele>161.64</ele><time>2011-08-17T10:31:59Z</time></trkpt><trkpt lat="51.937850" lon="-1.994175"><ele>160.68</ele><time>2011-08-17T10:32:04Z</time></trkpt><trkpt lat="51.937794" lon="-1.994053"><ele>159.72</ele><time>2011-08-17T10:32:14Z</time></trkpt><trkpt lat="51.937746" lon="-1.993971"><ele>159.24</ele><time>2011-08-17T10:32:22Z</time></trkpt><trkpt lat="51.937693" lon="-1.993864"><ele>158.27</ele><time>2011-08-17T10:32:30Z</time></trkpt><trkpt lat="51.937639" lon="-1.993754"><ele>157.31</ele><time>2011-08-17T10:32:39Z</time></trkpt><trkpt lat="51.937598" lon="-1.993664"><ele>157.31</ele><time>2011-08-17T10:32:46Z</time></trkpt><trkpt lat="51.937551" lon="-1.993555"><ele>156.83</ele><time>2011-08-17T10:32:55Z</time></trkpt><trkpt lat="51.937496" lon="-1.993411"><ele>155.39</ele><time>2011-08-17T10:33:05Z</time></trkpt><trkpt lat="51.937447" lon="-1.993293"><ele>154.91</ele><time>2011-08-17T10:33:14Z</time></trkpt><trkpt lat="51.937400" lon="-1.993208"><ele>152.99</ele><time>2011-08-17T10:33:21Z</time></trkpt><trkpt lat="51.937346" lon="-1.993085"><ele>152.03</ele><time>2011-08-17T10:33:30Z</time></trkpt><trkpt lat="51.937280" lon="-1.992956"><ele>151.06</ele><time>2011-08-17T10:33:40Z</time></trkpt><trkpt lat="51.937229" lon="-1.992833"><ele>150.58</ele><time>2011-08-17T10:33:49Z</time></trkpt><trkpt lat="51.937205" lon="-1.992723"><ele>153.47</ele><time>2011-08-17T10:33:56Z</time></trkpt><trkpt lat="51.937179" lon="-1.992610"><ele>155.87</ele><time>2011-08-17T10:34:05Z</time></trkpt><trkpt lat="51.937167" lon="-1.992588"><ele>155.87</ele><time>2011-08-17T10:34:07Z</time></trkpt><trkpt lat="51.937116" lon="-1.992530"><ele>155.87</ele><time>2011-08-17T10:34:16Z</time></trkpt><trkpt lat="51.937086" lon="-1.992506"><ele>153.95</ele><time>2011-08-17T10:34:23Z</time></trkpt><trkpt lat="51.937063" lon="-1.992464"><ele>152.99</ele><time>2011-08-17T10:34:30Z</time></trkpt><trkpt lat="51.937031" lon="-1.992394"><ele>150.58</ele><time>2011-08-17T10:34:40Z</time></trkpt><trkpt lat="51.937005" lon="-1.992405"><ele>151.06</ele><time>2011-08-17T10:34:46Z</time></trkpt><trkpt lat="51.936969" lon="-1.992345"><ele>152.51</ele><time>2011-08-17T10:34:56Z</time></trkpt><trkpt lat="51.936861" lon="-1.992278"><ele>153.47</ele><time>2011-08-17T10:35:05Z</time></trkpt><trkpt lat="51.936765" lon="-1.992244"><ele>155.87</ele><time>2011-08-17T10:35:16Z</time></trkpt><trkpt lat="51.936678" lon="-1.992215"><ele>157.79</ele><time>2011-08-17T10:35:29Z</time></trkpt><trkpt lat="51.936537" lon="-1.992215"><ele>158.75</ele><time>2011-08-17T10:35:38Z</time></trkpt><trkpt lat="51.936482" lon="-1.992201"><ele>159.72</ele><time>2011-08-17T10:35:46Z</time></trkpt><trkpt lat="51.936421" lon="-1.992115"><ele>161.64</ele><time>2011-08-17T10:35:57Z</time></trkpt><trkpt lat="51.936333" lon="-1.992084"><ele>165.00</ele><time>2011-08-17T10:36:07Z</time></trkpt><trkpt lat="51.936296" lon="-1.992042"><ele>167.41</ele><time>2011-08-17T10:36:16Z</time></trkpt><trkpt lat="51.936262" lon="-1.991982"><ele>169.81</ele><time>2011-08-17T10:36:24Z</time></trkpt><trkpt lat="51.936191" lon="-1.991961"><ele>170.77</ele><time>2011-08-17T10:36:33Z</time></trkpt><trkpt lat="51.936169" lon="-1.991969"><ele>170.77</ele><time>2011-08-17T10:36:41Z</time></trkpt><trkpt lat="51.936085" lon="-1.991917"><ele>171.25</ele><time>2011-08-17T10:36:54Z</time></trkpt><trkpt lat="51.935999" lon="-1.991884"><ele>172.69</ele><time>2011-08-17T10:37:11Z</time></trkpt><trkpt lat="51.936000" lon="-1.991882"><ele>174.14</ele><time>2011-08-17T10:37:25Z</time></trkpt><trkpt lat="51.935903" lon="-1.991710"><ele>174.62</ele><time>2011-08-17T10:37:42Z</time></trkpt><trkpt lat="51.935828" lon="-1.991596"><ele>176.54</ele><time>2011-08-17T10:37:54Z</time></trkpt><trkpt lat="51.935731" lon="-1.991512"><ele>176.06</ele><time>2011-08-17T10:38:06Z</time></trkpt><trkpt lat="51.935695" lon="-1.991447"><ele>176.06</ele><time>2011-08-17T10:38:12Z</time></trkpt><trkpt lat="51.935627" lon="-1.991282"><ele>175.10</ele><time>2011-08-17T10:38:25Z</time></trkpt><trkpt lat="51.935576" lon="-1.991222"><ele>176.06</ele><time>2011-08-17T10:38:33Z</time></trkpt><trkpt lat="51.935537" lon="-1.991109"><ele>177.50</ele><time>2011-08-17T10:38:42Z</time></trkpt><trkpt lat="51.935488" lon="-1.991032"><ele>178.94</ele><time>2011-08-17T10:38:49Z</time></trkpt><trkpt lat="51.935444" lon="-1.990920"><ele>182.31</ele><time>2011-08-17T10:38:59Z</time></trkpt><trkpt lat="51.935405" lon="-1.990810"><ele>186.63</ele><time>2011-08-17T10:39:13Z</time></trkpt><trkpt lat="51.935368" lon="-1.990730"><ele>187.11</ele><time>2011-08-17T10:39:27Z</time></trkpt><trkpt lat="51.935339" lon="-1.990698"><ele>188.08</ele><time>2011-08-17T10:39:41Z</time></trkpt><trkpt lat="51.935257" lon="-1.990605"><ele>188.56</ele><time>2011-08-17T10:40:09Z</time></trkpt><trkpt lat="51.935213" lon="-1.990488"><ele>190.48</ele><time>2011-08-17T10:40:25Z</time></trkpt><trkpt lat="51.935181" lon="-1.990439"><ele>192.88</ele><time>2011-08-17T10:40:34Z</time></trkpt><trkpt lat="51.935146" lon="-1.990399"><ele>194.32</ele><time>2011-08-17T10:40:43Z</time></trkpt><trkpt lat="51.935109" lon="-1.990360"><ele>197.69</ele><time>2011-08-17T10:40:52Z</time></trkpt><trkpt lat="51.935097" lon="-1.990375"><ele>196.25</ele><time>2011-08-17T10:41:09Z</time></trkpt><trkpt lat="51.934972" lon="-1.990309"><ele>196.25</ele><time>2011-08-17T10:41:18Z</time></trkpt><trkpt lat="51.934926" lon="-1.990277"><ele>199.13</ele><time>2011-08-17T10:41:23Z</time></trkpt><trkpt lat="51.934874" lon="-1.990147"><ele>200.57</ele><time>2011-08-17T10:41:37Z</time></trkpt><trkpt lat="51.934850" lon="-1.990098"><ele>201.05</ele><time>2011-08-17T10:41:46Z</time></trkpt><trkpt lat="51.934838" lon="-1.990094"><ele>201.05</ele><time>2011-08-17T10:41:55Z</time></trkpt><trkpt lat="51.934839" lon="-1.990068"><ele>200.09</ele><time>2011-08-17T10:42:02Z</time></trkpt><trkpt lat="51.934832" lon="-1.990079"><ele>198.65</ele><time>2011-08-17T10:42:09Z</time></trkpt><trkpt lat="51.934837" lon="-1.990076"><ele>199.13</ele><time>2011-08-17T10:42:15Z</time></trkpt><trkpt lat="51.934824" lon="-1.990078"><ele>198.17</ele><time>2011-08-17T10:42:38Z</time></trkpt><trkpt lat="51.934821" lon="-1.990073"><ele>197.21</ele><time>2011-08-17T10:43:18Z</time></trkpt><trkpt lat="51.934813" lon="-1.990062"><ele>198.17</ele><time>2011-08-17T10:43:36Z</time></trkpt><trkpt lat="51.934812" lon="-1.990019"><ele>198.65</ele><time>2011-08-17T10:43:47Z</time></trkpt><trkpt lat="51.934807" lon="-1.989915"><ele>198.65</ele><time>2011-08-17T10:43:54Z</time></trkpt><trkpt lat="51.934794" lon="-1.989826"><ele>199.61</ele><time>2011-08-17T10:44:01Z</time></trkpt><trkpt lat="51.934792" lon="-1.989759"><ele>200.57</ele><time>2011-08-17T10:44:07Z</time></trkpt><trkpt lat="51.934778" lon="-1.989653"><ele>201.05</ele><time>2011-08-17T10:44:16Z</time></trkpt><trkpt lat="51.934777" lon="-1.989562"><ele>200.57</ele><time>2011-08-17T10:44:23Z</time></trkpt><trkpt lat="51.934765" lon="-1.989440"><ele>203.46</ele><time>2011-08-17T10:44:33Z</time></trkpt><trkpt lat="51.934762" lon="-1.989403"><ele>204.42</ele><time>2011-08-17T10:44:36Z</time></trkpt><trkpt lat="51.934759" lon="-1.989332"><ele>206.34</ele><time>2011-08-17T10:44:41Z</time></trkpt><trkpt lat="51.934746" lon="-1.989203"><ele>206.82</ele><time>2011-08-17T10:44:50Z</time></trkpt><trkpt lat="51.934728" lon="-1.989083"><ele>207.30</ele><time>2011-08-17T10:44:57Z</time></trkpt><trkpt lat="51.934718" lon="-1.989008"><ele>207.30</ele><time>2011-08-17T10:45:02Z</time></trkpt><trkpt lat="51.934714" lon="-1.988909"><ele>208.26</ele><time>2011-08-17T10:45:09Z</time></trkpt><trkpt lat="51.934710" lon="-1.988819"><ele>206.34</ele><time>2011-08-17T10:45:16Z</time></trkpt><trkpt lat="51.934691" lon="-1.988733"><ele>204.90</ele><time>2011-08-17T10:45:23Z</time></trkpt><trkpt lat="51.934703" lon="-1.988679"><ele>204.90</ele><time>2011-08-17T10:45:30Z</time></trkpt><trkpt lat="51.934703" lon="-1.988655"><ele>205.38</ele><time>2011-08-17T10:45:39Z</time></trkpt><trkpt lat="51.934704" lon="-1.988611"><ele>204.90</ele><time>2011-08-17T10:45:47Z</time></trkpt><trkpt lat="51.934694" lon="-1.988591"><ele>202.98</ele><time>2011-08-17T10:45:58Z</time></trkpt><trkpt lat="51.934686" lon="-1.988538"><ele>202.49</ele><time>2011-08-17T10:46:06Z</time></trkpt><trkpt lat="51.934676" lon="-1.988481"><ele>202.49</ele><time>2011-08-17T10:46:14Z</time></trkpt><trkpt lat="51.934654" lon="-1.988419"><ele>202.98</ele><time>2011-08-17T10:46:20Z</time></trkpt><trkpt lat="51.934640" lon="-1.988370"><ele>203.46</ele><time>2011-08-17T10:46:26Z</time></trkpt><trkpt lat="51.934624" lon="-1.988221"><ele>204.90</ele><time>2011-08-17T10:46:34Z</time></trkpt><trkpt lat="51.934611" lon="-1.988122"><ele>206.34</ele><time>2011-08-17T10:46:41Z</time></trkpt><trkpt lat="51.934606" lon="-1.988023"><ele>208.74</ele><time>2011-08-17T10:46:49Z</time></trkpt><trkpt lat="51.934608" lon="-1.987926"><ele>211.63</ele><time>2011-08-17T10:46:56Z</time></trkpt><trkpt lat="51.934603" lon="-1.987811"><ele>214.51</ele><time>2011-08-17T10:47:04Z</time></trkpt><trkpt lat="51.934612" lon="-1.987729"><ele>216.43</ele><time>2011-08-17T10:47:11Z</time></trkpt><trkpt lat="51.934610" lon="-1.987592"><ele>219.80</ele><time>2011-08-17T10:47:20Z</time></trkpt><trkpt lat="51.934635" lon="-1.987568"><ele>221.72</ele><time>2011-08-17T10:47:27Z</time></trkpt><trkpt lat="51.934638" lon="-1.987488"><ele>225.09</ele><time>2011-08-17T10:47:37Z</time></trkpt><trkpt lat="51.934625" lon="-1.987385"><ele>225.57</ele><time>2011-08-17T10:47:44Z</time></trkpt><trkpt lat="51.934609" lon="-1.987295"><ele>225.09</ele><time>2011-08-17T10:47:52Z</time></trkpt><trkpt lat="51.934582" lon="-1.987215"><ele>223.16</ele><time>2011-08-17T10:47:59Z</time></trkpt><trkpt lat="51.934562" lon="-1.987141"><ele>222.20</ele><time>2011-08-17T10:48:05Z</time></trkpt><trkpt lat="51.934538" lon="-1.987056"><ele>220.76</ele><time>2011-08-17T10:48:12Z</time></trkpt><trkpt lat="51.934523" lon="-1.986982"><ele>220.28</ele><time>2011-08-17T10:48:18Z</time></trkpt><trkpt lat="51.934517" lon="-1.986887"><ele>219.32</ele><time>2011-08-17T10:48:26Z</time></trkpt><trkpt lat="51.934507" lon="-1.986777"><ele>219.32</ele><time>2011-08-17T10:48:35Z</time></trkpt><trkpt lat="51.934508" lon="-1.986668"><ele>219.32</ele><time>2011-08-17T10:48:44Z</time></trkpt><trkpt lat="51.934519" lon="-1.986569"><ele>218.84</ele><time>2011-08-17T10:48:51Z</time></trkpt><trkpt lat="51.934521" lon="-1.986537"><ele>218.36</ele><time>2011-08-17T10:48:53Z</time></trkpt><trkpt lat="51.934510" lon="-1.986404"><ele>216.91</ele><time>2011-08-17T10:49:01Z</time></trkpt><trkpt lat="51.934501" lon="-1.986289"><ele>215.95</ele><time>2011-08-17T10:49:09Z</time></trkpt><trkpt lat="51.934500" lon="-1.986212"><ele>215.95</ele><time>2011-08-17T10:49:15Z</time></trkpt><trkpt lat="51.934484" lon="-1.986093"><ele>214.99</ele><time>2011-08-17T10:49:23Z</time></trkpt><trkpt lat="51.934472" lon="-1.985976"><ele>214.51</ele><time>2011-08-17T10:49:31Z</time></trkpt><trkpt lat="51.934469" lon="-1.985865"><ele>215.47</ele><time>2011-08-17T10:49:38Z</time></trkpt><trkpt lat="51.934458" lon="-1.985740"><ele>214.99</ele><time>2011-08-17T10:49:46Z</time></trkpt><trkpt lat="51.934448" lon="-1.985640"><ele>214.99</ele><time>2011-08-17T10:49:53Z</time></trkpt><trkpt lat="51.934444" lon="-1.985540"><ele>214.51</ele><time>2011-08-17T10:50:00Z</time></trkpt><trkpt lat="51.934438" lon="-1.985438"><ele>214.99</ele><time>2011-08-17T10:50:07Z</time></trkpt><trkpt lat="51.934430" lon="-1.985320"><ele>214.03</ele><time>2011-08-17T10:50:15Z</time></trkpt><trkpt lat="51.934425" lon="-1.985218"><ele>214.03</ele><time>2011-08-17T10:50:22Z</time></trkpt><trkpt lat="51.934422" lon="-1.985091"><ele>214.03</ele><time>2011-08-17T10:50:29Z</time></trkpt><trkpt lat="51.934414" lon="-1.984963"><ele>215.47</ele><time>2011-08-17T10:50:37Z</time></trkpt><trkpt lat="51.934413" lon="-1.984880"><ele>215.95</ele><time>2011-08-17T10:50:43Z</time></trkpt><trkpt lat="51.934406" lon="-1.984764"><ele>216.43</ele><time>2011-08-17T10:50:51Z</time></trkpt><trkpt lat="51.934404" lon="-1.984716"><ele>215.95</ele><time>2011-08-17T10:50:54Z</time></trkpt><trkpt lat="51.934386" lon="-1.984608"><ele>215.47</ele><time>2011-08-17T10:51:01Z</time></trkpt><trkpt lat="51.934371" lon="-1.984483"><ele>215.47</ele><time>2011-08-17T10:51:09Z</time></trkpt><trkpt lat="51.934357" lon="-1.984399"><ele>216.91</ele><time>2011-08-17T10:51:15Z</time></trkpt><trkpt lat="51.934340" lon="-1.984347"><ele>217.88</ele><time>2011-08-17T10:51:21Z</time></trkpt><trkpt lat="51.934338" lon="-1.984253"><ele>218.84</ele><time>2011-08-17T10:51:29Z</time></trkpt><trkpt lat="51.934342" lon="-1.984166"><ele>219.32</ele><time>2011-08-17T10:51:36Z</time></trkpt><trkpt lat="51.934329" lon="-1.984047"><ele>217.88</ele><time>2011-08-17T10:51:45Z</time></trkpt><trkpt lat="51.934324" lon="-1.983942"><ele>218.84</ele><time>2011-08-17T10:51:52Z</time></trkpt><trkpt lat="51.934308" lon="-1.983831"><ele>219.32</ele><time>2011-08-17T10:51:59Z</time></trkpt><trkpt lat="51.934291" lon="-1.983716"><ele>220.28</ele><time>2011-08-17T10:52:07Z</time></trkpt><trkpt lat="51.934282" lon="-1.983643"><ele>222.20</ele><time>2011-08-17T10:52:12Z</time></trkpt><trkpt lat="51.934277" lon="-1.983543"><ele>224.12</ele><time>2011-08-17T10:52:19Z</time></trkpt><trkpt lat="51.934256" lon="-1.983397"><ele>224.61</ele><time>2011-08-17T10:52:28Z</time></trkpt><trkpt lat="51.934244" lon="-1.983280"><ele>225.57</ele><time>2011-08-17T10:52:36Z</time></trkpt><trkpt lat="51.934224" lon="-1.983177"><ele>225.57</ele><time>2011-08-17T10:52:44Z</time></trkpt><trkpt lat="51.934192" lon="-1.983067"><ele>225.09</ele><time>2011-08-17T10:52:52Z</time></trkpt><trkpt lat="51.934175" lon="-1.982952"><ele>225.09</ele><time>2011-08-17T10:53:00Z</time></trkpt><trkpt lat="51.934166" lon="-1.982849"><ele>225.57</ele><time>2011-08-17T10:53:07Z</time></trkpt><trkpt lat="51.934150" lon="-1.982713"><ele>227.01</ele><time>2011-08-17T10:53:15Z</time></trkpt><trkpt lat="51.934132" lon="-1.982593"><ele>227.97</ele><time>2011-08-17T10:53:23Z</time></trkpt><trkpt lat="51.934126" lon="-1.982481"><ele>228.45</ele><time>2011-08-17T10:53:31Z</time></trkpt><trkpt lat="51.934112" lon="-1.982388"><ele>228.93</ele><time>2011-08-17T10:53:39Z</time></trkpt><trkpt lat="51.934081" lon="-1.982239"><ele>228.45</ele><time>2011-08-17T10:53:49Z</time></trkpt><trkpt lat="51.934051" lon="-1.982109"><ele>228.45</ele><time>2011-08-17T10:53:57Z</time></trkpt><trkpt lat="51.934031" lon="-1.981997"><ele>228.45</ele><time>2011-08-17T10:54:04Z</time></trkpt><trkpt lat="51.934011" lon="-1.981896"><ele>229.41</ele><time>2011-08-17T10:54:11Z</time></trkpt><trkpt lat="51.933992" lon="-1.981780"><ele>230.37</ele><time>2011-08-17T10:54:19Z</time></trkpt><trkpt lat="51.933980" lon="-1.981669"><ele>231.81</ele><time>2011-08-17T10:54:27Z</time></trkpt><trkpt lat="51.933967" lon="-1.981573"><ele>232.30</ele><time>2011-08-17T10:54:34Z</time></trkpt><trkpt lat="51.933946" lon="-1.981447"><ele>232.30</ele><time>2011-08-17T10:54:43Z</time></trkpt><trkpt lat="51.933916" lon="-1.981324"><ele>232.30</ele><time>2011-08-17T10:54:52Z</time></trkpt><trkpt lat="51.933884" lon="-1.981205"><ele>232.30</ele><time>2011-08-17T10:55:00Z</time></trkpt><trkpt lat="51.933876" lon="-1.981111"><ele>233.74</ele><time>2011-08-17T10:55:07Z</time></trkpt><trkpt lat="51.933873" lon="-1.981009"><ele>234.70</ele><time>2011-08-17T10:55:14Z</time></trkpt><trkpt lat="51.933868" lon="-1.980900"><ele>236.62</ele><time>2011-08-17T10:55:22Z</time></trkpt><trkpt lat="51.933874" lon="-1.980801"><ele>238.06</ele><time>2011-08-17T10:55:30Z</time></trkpt><trkpt lat="51.933875" lon="-1.980680"><ele>239.51</ele><time>2011-08-17T10:55:39Z</time></trkpt><trkpt lat="51.933875" lon="-1.980543"><ele>239.99</ele><time>2011-08-17T10:55:48Z</time></trkpt><trkpt lat="51.933874" lon="-1.980409"><ele>239.99</ele><time>2011-08-17T10:55:57Z</time></trkpt><trkpt lat="51.933888" lon="-1.980289"><ele>240.47</ele><time>2011-08-17T10:56:05Z</time></trkpt><trkpt lat="51.933899" lon="-1.980150"><ele>240.47</ele><time>2011-08-17T10:56:16Z</time></trkpt><trkpt lat="51.933921" lon="-1.980016"><ele>239.99</ele><time>2011-08-17T10:56:23Z</time></trkpt><trkpt lat="51.933923" lon="-1.979857"><ele>239.51</ele><time>2011-08-17T10:56:31Z</time></trkpt><trkpt lat="51.933918" lon="-1.979761"><ele>239.51</ele><time>2011-08-17T10:56:37Z</time></trkpt><trkpt lat="51.933879" lon="-1.979609"><ele>237.58</ele><time>2011-08-17T10:56:48Z</time></trkpt><trkpt lat="51.933858" lon="-1.979501"><ele>237.10</ele><time>2011-08-17T10:56:54Z</time></trkpt><trkpt lat="51.933846" lon="-1.979402"><ele>236.14</ele><time>2011-08-17T10:57:03Z</time></trkpt><trkpt lat="51.933805" lon="-1.979278"><ele>235.18</ele><time>2011-08-17T10:57:12Z</time></trkpt><trkpt lat="51.933752" lon="-1.979171"><ele>234.22</ele><time>2011-08-17T10:57:22Z</time></trkpt><trkpt lat="51.933671" lon="-1.979052"><ele>232.78</ele><time>2011-08-17T10:57:33Z</time></trkpt><trkpt lat="51.933604" lon="-1.978887"><ele>231.81</ele><time>2011-08-17T10:57:44Z</time></trkpt><trkpt lat="51.933547" lon="-1.978803"><ele>230.37</ele><time>2011-08-17T10:57:52Z</time></trkpt><trkpt lat="51.933494" lon="-1.978701"><ele>230.37</ele><time>2011-08-17T10:58:00Z</time></trkpt><trkpt lat="51.933450" lon="-1.978618"><ele>229.41</ele><time>2011-08-17T10:58:07Z</time></trkpt><trkpt lat="51.933448" lon="-1.978567"><ele>229.89</ele><time>2011-08-17T10:58:10Z</time></trkpt><trkpt lat="51.933438" lon="-1.978466"><ele>228.45</ele><time>2011-08-17T10:58:18Z</time></trkpt><trkpt lat="51.933436" lon="-1.978452"><ele>228.45</ele><time>2011-08-17T10:58:20Z</time></trkpt><trkpt lat="51.933459" lon="-1.978396"><ele>227.97</ele><time>2011-08-17T10:58:26Z</time></trkpt><trkpt lat="51.933472" lon="-1.978294"><ele>225.57</ele><time>2011-08-17T10:58:34Z</time></trkpt><trkpt lat="51.933521" lon="-1.978146"><ele>223.64</ele><time>2011-08-17T10:58:44Z</time></trkpt><trkpt lat="51.933552" lon="-1.978041"><ele>224.12</ele><time>2011-08-17T10:58:51Z</time></trkpt><trkpt lat="51.933565" lon="-1.977946"><ele>225.09</ele><time>2011-08-17T10:58:58Z</time></trkpt><trkpt lat="51.933584" lon="-1.977770"><ele>228.45</ele><time>2011-08-17T10:59:12Z</time></trkpt><trkpt lat="51.933601" lon="-1.977681"><ele>230.85</ele><time>2011-08-17T10:59:21Z</time></trkpt><trkpt lat="51.933624" lon="-1.977540"><ele>232.78</ele><time>2011-08-17T10:59:31Z</time></trkpt><trkpt lat="51.933679" lon="-1.977387"><ele>235.18</ele><time>2011-08-17T10:59:42Z</time></trkpt><trkpt lat="51.933723" lon="-1.977194"><ele>235.66</ele><time>2011-08-17T10:59:53Z</time></trkpt><trkpt lat="51.933744" lon="-1.977064"><ele>235.66</ele><time>2011-08-17T11:00:00Z</time></trkpt><trkpt lat="51.933747" lon="-1.976967"><ele>234.70</ele><time>2011-08-17T11:00:07Z</time></trkpt><trkpt lat="51.933740" lon="-1.976921"><ele>233.26</ele><time>2011-08-17T11:00:16Z</time></trkpt><trkpt lat="51.933749" lon="-1.976841"><ele>232.78</ele><time>2011-08-17T11:00:22Z</time></trkpt><trkpt lat="51.933756" lon="-1.976735"><ele>232.30</ele><time>2011-08-17T11:00:30Z</time></trkpt><trkpt lat="51.933759" lon="-1.976624"><ele>230.37</ele><time>2011-08-17T11:00:39Z</time></trkpt><trkpt lat="51.933758" lon="-1.976515"><ele>229.41</ele><time>2011-08-17T11:00:48Z</time></trkpt><trkpt lat="51.933754" lon="-1.976419"><ele>227.49</ele><time>2011-08-17T11:00:56Z</time></trkpt><trkpt lat="51.933744" lon="-1.976286"><ele>226.53</ele><time>2011-08-17T11:01:05Z</time></trkpt><trkpt lat="51.933741" lon="-1.976150"><ele>225.09</ele><time>2011-08-17T11:01:17Z</time></trkpt><trkpt lat="51.933744" lon="-1.976019"><ele>224.61</ele><time>2011-08-17T11:01:26Z</time></trkpt><trkpt lat="51.933766" lon="-1.975905"><ele>225.09</ele><time>2011-08-17T11:01:36Z</time></trkpt><trkpt lat="51.933778" lon="-1.975815"><ele>226.53</ele><time>2011-08-17T11:01:43Z</time></trkpt><trkpt lat="51.933786" lon="-1.975740"><ele>228.93</ele><time>2011-08-17T11:01:49Z</time></trkpt><trkpt lat="51.933807" lon="-1.975678"><ele>229.89</ele><time>2011-08-17T11:01:55Z</time></trkpt><trkpt lat="51.933841" lon="-1.975558"><ele>231.33</ele><time>2011-08-17T11:02:06Z</time></trkpt><trkpt lat="51.933857" lon="-1.975446"><ele>233.74</ele><time>2011-08-17T11:02:15Z</time></trkpt><trkpt lat="51.933887" lon="-1.975365"><ele>235.18</ele><time>2011-08-17T11:02:22Z</time></trkpt><trkpt lat="51.933922" lon="-1.975270"><ele>235.66</ele><time>2011-08-17T11:02:29Z</time></trkpt><trkpt lat="51.933947" lon="-1.975185"><ele>235.18</ele><time>2011-08-17T11:02:36Z</time></trkpt><trkpt lat="51.933959" lon="-1.975091"><ele>236.62</ele><time>2011-08-17T11:02:45Z</time></trkpt><trkpt lat="51.934031" lon="-1.974929"><ele>239.02</ele><time>2011-08-17T11:02:58Z</time></trkpt><trkpt lat="51.934078" lon="-1.974843"><ele>239.02</ele><time>2011-08-17T11:03:05Z</time></trkpt><trkpt lat="51.934142" lon="-1.974764"><ele>239.51</ele><time>2011-08-17T11:03:14Z</time></trkpt><trkpt lat="51.934210" lon="-1.974663"><ele>239.99</ele><time>2011-08-17T11:03:24Z</time></trkpt><trkpt lat="51.934314" lon="-1.974539"><ele>239.51</ele><time>2011-08-17T11:03:35Z</time></trkpt><trkpt lat="51.934373" lon="-1.974448"><ele>239.99</ele><time>2011-08-17T11:03:43Z</time></trkpt><trkpt lat="51.934445" lon="-1.974387"><ele>239.99</ele><time>2011-08-17T11:03:52Z</time></trkpt><trkpt lat="51.934506" lon="-1.974340"><ele>240.47</ele><time>2011-08-17T11:04:00Z</time></trkpt><trkpt lat="51.934561" lon="-1.974265"><ele>239.51</ele><time>2011-08-17T11:04:08Z</time></trkpt><trkpt lat="51.934589" lon="-1.974220"><ele>238.54</ele><time>2011-08-17T11:04:14Z</time></trkpt><trkpt lat="51.934629" lon="-1.974171"><ele>235.66</ele><time>2011-08-17T11:04:23Z</time></trkpt><trkpt lat="51.934697" lon="-1.974055"><ele>233.26</ele><time>2011-08-17T11:04:33Z</time></trkpt><trkpt lat="51.934744" lon="-1.973982"><ele>230.37</ele><time>2011-08-17T11:04:41Z</time></trkpt><trkpt lat="51.934767" lon="-1.973899"><ele>227.97</ele><time>2011-08-17T11:04:48Z</time></trkpt><trkpt lat="51.934831" lon="-1.973841"><ele>227.01</ele><time>2011-08-17T11:04:57Z</time></trkpt><trkpt lat="51.934892" lon="-1.973784"><ele>224.61</ele><time>2011-08-17T11:05:08Z</time></trkpt><trkpt lat="51.934947" lon="-1.973664"><ele>223.64</ele><time>2011-08-17T11:05:16Z</time></trkpt><trkpt lat="51.935008" lon="-1.973539"><ele>223.16</ele><time>2011-08-17T11:05:25Z</time></trkpt><trkpt lat="51.935055" lon="-1.973408"><ele>222.20</ele><time>2011-08-17T11:05:33Z</time></trkpt><trkpt lat="51.935110" lon="-1.973263"><ele>221.24</ele><time>2011-08-17T11:05:44Z</time></trkpt><trkpt lat="51.935171" lon="-1.973195"><ele>219.32</ele><time>2011-08-17T11:05:58Z</time></trkpt><trkpt lat="51.935204" lon="-1.973179"><ele>218.36</ele><time>2011-08-17T11:06:11Z</time></trkpt><trkpt lat="51.935245" lon="-1.973191"><ele>215.47</ele><time>2011-08-17T11:06:20Z</time></trkpt><trkpt lat="51.935280" lon="-1.973217"><ele>215.47</ele><time>2011-08-17T11:06:27Z</time></trkpt><trkpt lat="51.935274" lon="-1.973217"><ele>215.47</ele><time>2011-08-17T11:06:44Z</time></trkpt><trkpt lat="51.935234" lon="-1.973262"><ele>214.51</ele><time>2011-08-17T11:06:52Z</time></trkpt><trkpt lat="51.935202" lon="-1.973301"><ele>213.55</ele><time>2011-08-17T11:07:13Z</time></trkpt><trkpt lat="51.935192" lon="-1.973316"><ele>213.07</ele><time>2011-08-17T11:07:21Z</time></trkpt><trkpt lat="51.935195" lon="-1.973334"><ele>212.59</ele><time>2011-08-17T11:07:30Z</time></trkpt><trkpt lat="51.935194" lon="-1.973333"><ele>212.59</ele><time>2011-08-17T11:07:53Z</time></trkpt><trkpt lat="51.935243" lon="-1.973241"><ele>209.70</ele><time>2011-08-17T11:08:02Z</time></trkpt><trkpt lat="51.935349" lon="-1.973294"><ele>208.26</ele><time>2011-08-17T11:08:10Z</time></trkpt><trkpt lat="51.935546" lon="-1.973392"><ele>206.34</ele><time>2011-08-17T11:08:23Z</time></trkpt><trkpt lat="51.935653" lon="-1.973465"><ele>203.94</ele><time>2011-08-17T11:08:31Z</time></trkpt><trkpt lat="51.935821" lon="-1.973497"><ele>202.01</ele><time>2011-08-17T11:08:42Z</time></trkpt><trkpt lat="51.936004" lon="-1.973610"><ele>198.65</ele><time>2011-08-17T11:08:55Z</time></trkpt><trkpt lat="51.936017" lon="-1.973622"><ele>198.17</ele><time>2011-08-17T11:08:56Z</time></trkpt><trkpt lat="51.936071" lon="-1.973655"><ele>198.17</ele><time>2011-08-17T11:09:00Z</time></trkpt><trkpt lat="51.936240" lon="-1.973755"><ele>196.73</ele><time>2011-08-17T11:09:14Z</time></trkpt><trkpt lat="51.936331" lon="-1.973882"><ele>193.84</ele><time>2011-08-17T11:09:22Z</time></trkpt><trkpt lat="51.936361" lon="-1.973995"><ele>190.48</ele><time>2011-08-17T11:09:30Z</time></trkpt><trkpt lat="51.936458" lon="-1.974053"><ele>187.59</ele><time>2011-08-17T11:09:40Z</time></trkpt><trkpt lat="51.936495" lon="-1.974037"><ele>187.11</ele><time>2011-08-17T11:09:43Z</time></trkpt><trkpt lat="51.936577" lon="-1.974071"><ele>184.71</ele><time>2011-08-17T11:09:51Z</time></trkpt><trkpt lat="51.936691" lon="-1.974132"><ele>183.27</ele><time>2011-08-17T11:10:02Z</time></trkpt><trkpt lat="51.936721" lon="-1.974141"><ele>182.79</ele><time>2011-08-17T11:10:05Z</time></trkpt><trkpt lat="51.936823" lon="-1.974166"><ele>179.90</ele><time>2011-08-17T11:10:15Z</time></trkpt><trkpt lat="51.936930" lon="-1.974163"><ele>179.42</ele><time>2011-08-17T11:10:26Z</time></trkpt><trkpt lat="51.936991" lon="-1.974154"><ele>179.42</ele><time>2011-08-17T11:10:33Z</time></trkpt><trkpt lat="51.937054" lon="-1.974142"><ele>177.50</ele><time>2011-08-17T11:10:41Z</time></trkpt><trkpt lat="51.937130" lon="-1.974105"><ele>176.54</ele><time>2011-08-17T11:10:50Z</time></trkpt><trkpt lat="51.937214" lon="-1.974080"><ele>174.62</ele><time>2011-08-17T11:11:00Z</time></trkpt><trkpt lat="51.937311" lon="-1.974050"><ele>170.29</ele><time>2011-08-17T11:11:12Z</time></trkpt><trkpt lat="51.937393" lon="-1.974019"><ele>168.85</ele><time>2011-08-17T11:11:22Z</time></trkpt><trkpt lat="51.937490" lon="-1.973997"><ele>167.41</ele><time>2011-08-17T11:11:31Z</time></trkpt><trkpt lat="51.937619" lon="-1.973972"><ele>165.96</ele><time>2011-08-17T11:11:43Z</time></trkpt><trkpt lat="51.937712" lon="-1.973972"><ele>164.52</ele><time>2011-08-17T11:11:52Z</time></trkpt><trkpt lat="51.937841" lon="-1.973961"><ele>163.08</ele><time>2011-08-17T11:12:04Z</time></trkpt><trkpt lat="51.937949" lon="-1.973942"><ele>161.16</ele><time>2011-08-17T11:12:15Z</time></trkpt><trkpt lat="51.938054" lon="-1.973922"><ele>159.24</ele><time>2011-08-17T11:12:25Z</time></trkpt><trkpt lat="51.938168" lon="-1.973922"><ele>156.83</ele><time>2011-08-17T11:12:37Z</time></trkpt><trkpt lat="51.938271" lon="-1.973943"><ele>154.91</ele><time>2011-08-17T11:12:47Z</time></trkpt><trkpt lat="51.938408" lon="-1.973981"><ele>152.99</ele><time>2011-08-17T11:13:00Z</time></trkpt><trkpt lat="51.938522" lon="-1.974013"><ele>151.54</ele><time>2011-08-17T11:13:11Z</time></trkpt><trkpt lat="51.938648" lon="-1.974064"><ele>150.58</ele><time>2011-08-17T11:13:23Z</time></trkpt><trkpt lat="51.938756" lon="-1.974092"><ele>149.14</ele><time>2011-08-17T11:13:33Z</time></trkpt><trkpt lat="51.938830" lon="-1.974120"><ele>148.18</ele><time>2011-08-17T11:13:42Z</time></trkpt><trkpt lat="51.938831" lon="-1.974112"><ele>148.18</ele><time>2011-08-17T11:14:12Z</time></trkpt><trkpt lat="51.938848" lon="-1.974111"><ele>149.14</ele><time>2011-08-17T11:14:19Z</time></trkpt><trkpt lat="51.938946" lon="-1.974180"><ele>147.70</ele><time>2011-08-17T11:14:29Z</time></trkpt><trkpt lat="51.939011" lon="-1.974212"><ele>146.74</ele><time>2011-08-17T11:14:37Z</time></trkpt><trkpt lat="51.939036" lon="-1.974221"><ele>146.74</ele><time>2011-08-17T11:14:57Z</time></trkpt><trkpt lat="51.939154" lon="-1.974265"><ele>143.85</ele><time>2011-08-17T11:15:07Z</time></trkpt><trkpt lat="51.939259" lon="-1.974307"><ele>141.45</ele><time>2011-08-17T11:15:17Z</time></trkpt><trkpt lat="51.939384" lon="-1.974344"><ele>140.01</ele><time>2011-08-17T11:15:28Z</time></trkpt><trkpt lat="51.939490" lon="-1.974351"><ele>138.57</ele><time>2011-08-17T11:15:39Z</time></trkpt><trkpt lat="51.939518" lon="-1.974350"><ele>138.09</ele><time>2011-08-17T11:15:42Z</time></trkpt><trkpt lat="51.939624" lon="-1.974345"><ele>136.16</ele><time>2011-08-17T11:15:52Z</time></trkpt><trkpt lat="51.939728" lon="-1.974366"><ele>135.20</ele><time>2011-08-17T11:16:02Z</time></trkpt><trkpt lat="51.939819" lon="-1.974358"><ele>133.76</ele><time>2011-08-17T11:16:11Z</time></trkpt><trkpt lat="51.939931" lon="-1.974351"><ele>132.80</ele><time>2011-08-17T11:16:22Z</time></trkpt><trkpt lat="51.940023" lon="-1.974380"><ele>132.80</ele><time>2011-08-17T11:16:31Z</time></trkpt><trkpt lat="51.940089" lon="-1.974365"><ele>131.36</ele><time>2011-08-17T11:16:39Z</time></trkpt><trkpt lat="51.940170" lon="-1.974351"><ele>130.88</ele><time>2011-08-17T11:16:47Z</time></trkpt><trkpt lat="51.940252" lon="-1.974329"><ele>129.92</ele><time>2011-08-17T11:16:56Z</time></trkpt><trkpt lat="51.940283" lon="-1.974300"><ele>130.88</ele><time>2011-08-17T11:17:07Z</time></trkpt><trkpt lat="51.940289" lon="-1.974309"><ele>129.43</ele><time>2011-08-17T11:17:15Z</time></trkpt><trkpt lat="51.940334" lon="-1.974301"><ele>129.43</ele><time>2011-08-17T11:17:21Z</time></trkpt><trkpt lat="51.940424" lon="-1.974290"><ele>129.92</ele><time>2011-08-17T11:17:30Z</time></trkpt><trkpt lat="51.940467" lon="-1.974243"><ele>130.40</ele><time>2011-08-17T11:17:37Z</time></trkpt><trkpt lat="51.940503" lon="-1.974236"><ele>130.88</ele><time>2011-08-17T11:17:49Z</time></trkpt><trkpt lat="51.940602" lon="-1.974175"><ele>131.84</ele><time>2011-08-17T11:17:58Z</time></trkpt><trkpt lat="51.940671" lon="-1.974141"><ele>131.36</ele><time>2011-08-17T11:18:05Z</time></trkpt><trkpt lat="51.940743" lon="-1.974109"><ele>130.40</ele><time>2011-08-17T11:18:13Z</time></trkpt><trkpt lat="51.940809" lon="-1.974088"><ele>129.92</ele><time>2011-08-17T11:18:21Z</time></trkpt><trkpt lat="51.940892" lon="-1.974062"><ele>129.92</ele><time>2011-08-17T11:18:30Z</time></trkpt><trkpt lat="51.940969" lon="-1.974034"><ele>128.95</ele><time>2011-08-17T11:18:39Z</time></trkpt><trkpt lat="51.941054" lon="-1.974018"><ele>127.51</ele><time>2011-08-17T11:18:48Z</time></trkpt><trkpt lat="51.941163" lon="-1.973990"><ele>126.07</ele><time>2011-08-17T11:18:59Z</time></trkpt><trkpt lat="51.941260" lon="-1.973965"><ele>125.59</ele><time>2011-08-17T11:19:08Z</time></trkpt><trkpt lat="51.941344" lon="-1.973940"><ele>125.59</ele><time>2011-08-17T11:19:16Z</time></trkpt><trkpt lat="51.941428" lon="-1.973920"><ele>124.15</ele><time>2011-08-17T11:19:24Z</time></trkpt><trkpt lat="51.941524" lon="-1.973889"><ele>124.15</ele><time>2011-08-17T11:19:33Z</time></trkpt><trkpt lat="51.941623" lon="-1.973853"><ele>123.19</ele><time>2011-08-17T11:19:43Z</time></trkpt><trkpt lat="51.941705" lon="-1.973839"><ele>121.74</ele><time>2011-08-17T11:19:51Z</time></trkpt><trkpt lat="51.941819" lon="-1.973796"><ele>120.78</ele><time>2011-08-17T11:20:02Z</time></trkpt><trkpt lat="51.941885" lon="-1.973776"><ele>120.30</ele><time>2011-08-17T11:20:09Z</time></trkpt><trkpt lat="51.942016" lon="-1.973745"><ele>120.30</ele><time>2011-08-17T11:20:20Z</time></trkpt><trkpt lat="51.942163" lon="-1.973719"><ele>118.86</ele><time>2011-08-17T11:20:32Z</time></trkpt><trkpt lat="51.942300" lon="-1.973694"><ele>118.38</ele><time>2011-08-17T11:20:44Z</time></trkpt><trkpt lat="51.942413" lon="-1.973649"><ele>117.90</ele><time>2011-08-17T11:20:55Z</time></trkpt><trkpt lat="51.942527" lon="-1.973610"><ele>117.42</ele><time>2011-08-17T11:21:07Z</time></trkpt><trkpt lat="51.942685" lon="-1.973566"><ele>117.42</ele><time>2011-08-17T11:21:21Z</time></trkpt><trkpt lat="51.942770" lon="-1.973542"><ele>116.94</ele><time>2011-08-17T11:21:29Z</time></trkpt><trkpt lat="51.942883" lon="-1.973514"><ele>116.46</ele><time>2011-08-17T11:21:40Z</time></trkpt><trkpt lat="51.942977" lon="-1.973488"><ele>115.98</ele><time>2011-08-17T11:21:49Z</time></trkpt><trkpt lat="51.943071" lon="-1.973463"><ele>115.98</ele><time>2011-08-17T11:21:58Z</time></trkpt><trkpt lat="51.943209" lon="-1.973424"><ele>115.50</ele><time>2011-08-17T11:22:10Z</time></trkpt><trkpt lat="51.943275" lon="-1.973399"><ele>115.01</ele><time>2011-08-17T11:22:16Z</time></trkpt><trkpt lat="51.943435" lon="-1.973336"><ele>115.01</ele><time>2011-08-17T11:22:30Z</time></trkpt><trkpt lat="51.943583" lon="-1.973279"><ele>113.57</ele><time>2011-08-17T11:22:43Z</time></trkpt><trkpt lat="51.943671" lon="-1.973272"><ele>113.57</ele><time>2011-08-17T11:22:52Z</time></trkpt><trkpt lat="51.943790" lon="-1.973263"><ele>113.09</ele><time>2011-08-17T11:23:03Z</time></trkpt><trkpt lat="51.943943" lon="-1.973271"><ele>113.09</ele><time>2011-08-17T11:23:16Z</time></trkpt><trkpt lat="51.943997" lon="-1.973295"><ele>112.61</ele><time>2011-08-17T11:23:23Z</time></trkpt><trkpt lat="51.944114" lon="-1.973330"><ele>113.09</ele><time>2011-08-17T11:23:34Z</time></trkpt><trkpt lat="51.944221" lon="-1.973337"><ele>112.61</ele><time>2011-08-17T11:23:43Z</time></trkpt><trkpt lat="51.944318" lon="-1.973256"><ele>113.09</ele><time>2011-08-17T11:23:53Z</time></trkpt><trkpt lat="51.944345" lon="-1.973153"><ele>114.05</ele><time>2011-08-17T11:24:00Z</time></trkpt><trkpt lat="51.944348" lon="-1.973130"><ele>113.57</ele><time>2011-08-17T11:24:03Z</time></trkpt><trkpt lat="51.944375" lon="-1.973053"><ele>113.09</ele><time>2011-08-17T11:24:10Z</time></trkpt><trkpt lat="51.944386" lon="-1.973000"><ele>113.57</ele><time>2011-08-17T11:24:16Z</time></trkpt><trkpt lat="51.944390" lon="-1.972990"><ele>111.17</ele><time>2011-08-17T11:24:24Z</time></trkpt><trkpt lat="51.944406" lon="-1.972949"><ele>109.25</ele><time>2011-08-17T11:24:31Z</time></trkpt><trkpt lat="51.944453" lon="-1.972906"><ele>106.84</ele><time>2011-08-17T11:24:39Z</time></trkpt><trkpt lat="51.944510" lon="-1.972884"><ele>105.88</ele><time>2011-08-17T11:24:47Z</time></trkpt><trkpt lat="51.944555" lon="-1.972878"><ele>104.92</ele><time>2011-08-17T11:24:55Z</time></trkpt><trkpt lat="51.944650" lon="-1.972867"><ele>103.48</ele><time>2011-08-17T11:25:06Z</time></trkpt><trkpt lat="51.944722" lon="-1.972840"><ele>103.96</ele><time>2011-08-17T11:25:14Z</time></trkpt><trkpt lat="51.944791" lon="-1.972837"><ele>104.44</ele><time>2011-08-17T11:25:22Z</time></trkpt><trkpt lat="51.944820" lon="-1.972820"><ele>103.96</ele><time>2011-08-17T11:25:28Z</time></trkpt><trkpt lat="51.944895" lon="-1.972806"><ele>104.44</ele><time>2011-08-17T11:25:36Z</time></trkpt><trkpt lat="51.945020" lon="-1.972780"><ele>104.92</ele><time>2011-08-17T11:25:46Z</time></trkpt><trkpt lat="51.945069" lon="-1.972795"><ele>103.96</ele><time>2011-08-17T11:25:53Z</time></trkpt><trkpt lat="51.945112" lon="-1.972858"><ele>104.44</ele><time>2011-08-17T11:26:00Z</time></trkpt><trkpt lat="51.945124" lon="-1.972818"><ele>104.44</ele><time>2011-08-17T11:26:04Z</time></trkpt><trkpt lat="51.945160" lon="-1.972734"><ele>104.44</ele><time>2011-08-17T11:26:08Z</time></trkpt><trkpt lat="51.945262" lon="-1.972721"><ele>104.44</ele><time>2011-08-17T11:26:16Z</time></trkpt><trkpt lat="51.945335" lon="-1.972728"><ele>104.92</ele><time>2011-08-17T11:26:26Z</time></trkpt><trkpt lat="51.945441" lon="-1.972694"><ele>106.84</ele><time>2011-08-17T11:26:37Z</time></trkpt><trkpt lat="51.945493" lon="-1.972661"><ele>106.84</ele><time>2011-08-17T11:26:43Z</time></trkpt><trkpt lat="51.945504" lon="-1.972663"><ele>108.77</ele><time>2011-08-17T11:26:45Z</time></trkpt><trkpt lat="51.945568" lon="-1.972698"><ele>110.21</ele><time>2011-08-17T11:26:53Z</time></trkpt><trkpt lat="51.945624" lon="-1.972682"><ele>110.21</ele><time>2011-08-17T11:26:59Z</time></trkpt><trkpt lat="51.945681" lon="-1.972671"><ele>108.77</ele><time>2011-08-17T11:27:06Z</time></trkpt><trkpt lat="51.945738" lon="-1.972676"><ele>108.29</ele><time>2011-08-17T11:27:12Z</time></trkpt><trkpt lat="51.945816" lon="-1.972689"><ele>107.81</ele><time>2011-08-17T11:27:19Z</time></trkpt><trkpt lat="51.945923" lon="-1.972706"><ele>106.36</ele><time>2011-08-17T11:27:29Z</time></trkpt><trkpt lat="51.945993" lon="-1.972720"><ele>106.36</ele><time>2011-08-17T11:27:36Z</time></trkpt><trkpt lat="51.946107" lon="-1.972743"><ele>106.84</ele><time>2011-08-17T11:27:46Z</time></trkpt><trkpt lat="51.946203" lon="-1.972769"><ele>106.36</ele><time>2011-08-17T11:27:55Z</time></trkpt><trkpt lat="51.946318" lon="-1.972794"><ele>105.40</ele><time>2011-08-17T11:28:05Z</time></trkpt><trkpt lat="51.946430" lon="-1.972829"><ele>105.40</ele><time>2011-08-17T11:28:16Z</time></trkpt><trkpt lat="51.946554" lon="-1.972870"><ele>105.40</ele><time>2011-08-17T11:28:28Z</time></trkpt><trkpt lat="51.946666" lon="-1.972933"><ele>104.44</ele><time>2011-08-17T11:28:39Z</time></trkpt><trkpt lat="51.946741" lon="-1.972973"><ele>104.44</ele><time>2011-08-17T11:28:47Z</time></trkpt><trkpt lat="51.946847" lon="-1.972999"><ele>104.92</ele><time>2011-08-17T11:28:57Z</time></trkpt><trkpt lat="51.946894" lon="-1.972986"><ele>104.92</ele><time>2011-08-17T11:29:04Z</time></trkpt><trkpt lat="51.946975" lon="-1.973046"><ele>104.92</ele><time>2011-08-17T11:29:13Z</time></trkpt><trkpt lat="51.947063" lon="-1.973084"><ele>103.96</ele><time>2011-08-17T11:29:23Z</time></trkpt><trkpt lat="51.947125" lon="-1.973114"><ele>101.56</ele><time>2011-08-17T11:29:31Z</time></trkpt><trkpt lat="51.947208" lon="-1.973155"><ele>101.08</ele><time>2011-08-17T11:29:40Z</time></trkpt><trkpt lat="51.947240" lon="-1.973152"><ele>101.08</ele><time>2011-08-17T11:29:58Z</time></trkpt><trkpt lat="51.947338" lon="-1.973156"><ele>103.96</ele><time>2011-08-17T11:30:07Z</time></trkpt><trkpt lat="51.947423" lon="-1.973130"><ele>103.96</ele><time>2011-08-17T11:30:14Z</time></trkpt><trkpt lat="51.947489" lon="-1.973114"><ele>103.96</ele><time>2011-08-17T11:30:20Z</time></trkpt><trkpt lat="51.947562" lon="-1.973119"><ele>103.48</ele><time>2011-08-17T11:30:30Z</time></trkpt><trkpt lat="51.947557" lon="-1.973107"><ele>103.00</ele><time>2011-08-17T11:30:48Z</time></trkpt><trkpt lat="51.947601" lon="-1.973094"><ele>102.52</ele><time>2011-08-17T11:30:54Z</time></trkpt><trkpt lat="51.947696" lon="-1.973100"><ele>103.00</ele><time>2011-08-17T11:31:06Z</time></trkpt><trkpt lat="51.947782" lon="-1.973096"><ele>103.00</ele><time>2011-08-17T11:31:16Z</time></trkpt><trkpt lat="51.947911" lon="-1.973105"><ele>103.00</ele><time>2011-08-17T11:31:28Z</time></trkpt><trkpt lat="51.948020" lon="-1.973123"><ele>102.52</ele><time>2011-08-17T11:31:39Z</time></trkpt><trkpt lat="51.948084" lon="-1.973124"><ele>102.52</ele><time>2011-08-17T11:31:45Z</time></trkpt><trkpt lat="51.948132" lon="-1.973106"><ele>102.04</ele><time>2011-08-17T11:31:50Z</time></trkpt><trkpt lat="51.948236" lon="-1.973097"><ele>102.04</ele><time>2011-08-17T11:32:01Z</time></trkpt><trkpt lat="51.948310" lon="-1.973105"><ele>102.04</ele><time>2011-08-17T11:32:10Z</time></trkpt><trkpt lat="51.948387" lon="-1.973111"><ele>102.04</ele><time>2011-08-17T11:32:17Z</time></trkpt><trkpt lat="51.948496" lon="-1.973112"><ele>101.56</ele><time>2011-08-17T11:32:26Z</time></trkpt><trkpt lat="51.948559" lon="-1.973113"><ele>101.08</ele><time>2011-08-17T11:32:33Z</time></trkpt><trkpt lat="51.948590" lon="-1.973121"><ele>100.60</ele><time>2011-08-17T11:32:40Z</time></trkpt><trkpt lat="51.948681" lon="-1.973157"><ele>100.11</ele><time>2011-08-17T11:32:48Z</time></trkpt><trkpt lat="51.948790" lon="-1.973169"><ele>94.35</ele><time>2011-08-17T11:32:59Z</time></trkpt><trkpt lat="51.948910" lon="-1.973220"><ele>94.35</ele><time>2011-08-17T11:33:10Z</time></trkpt><trkpt lat="51.948983" lon="-1.973246"><ele>93.39</ele><time>2011-08-17T11:33:18Z</time></trkpt><trkpt lat="51.949053" lon="-1.973272"><ele>92.90</ele><time>2011-08-17T11:33:26Z</time></trkpt><trkpt lat="51.949124" lon="-1.973310"><ele>92.42</ele><time>2011-08-17T11:33:34Z</time></trkpt><trkpt lat="51.949199" lon="-1.973357"><ele>92.42</ele><time>2011-08-17T11:33:42Z</time></trkpt><trkpt lat="51.949253" lon="-1.973414"><ele>93.39</ele><time>2011-08-17T11:33:50Z</time></trkpt><trkpt lat="51.949288" lon="-1.973428"><ele>94.35</ele><time>2011-08-17T11:33:55Z</time></trkpt><trkpt lat="51.949346" lon="-1.973503"><ele>93.39</ele><time>2011-08-17T11:34:03Z</time></trkpt><trkpt lat="51.949412" lon="-1.973610"><ele>91.46</ele><time>2011-08-17T11:34:12Z</time></trkpt><trkpt lat="51.949433" lon="-1.973644"><ele>91.46</ele><time>2011-08-17T11:34:15Z</time></trkpt><trkpt lat="51.949499" lon="-1.973675"><ele>91.94</ele><time>2011-08-17T11:34:23Z</time></trkpt><trkpt lat="51.949515" lon="-1.973665"><ele>91.94</ele><time>2011-08-17T11:34:29Z</time></trkpt><trkpt lat="51.949519" lon="-1.973727"><ele>93.39</ele><time>2011-08-17T11:34:38Z</time></trkpt><trkpt lat="51.949543" lon="-1.973738"><ele>93.87</ele><time>2011-08-17T11:34:49Z</time></trkpt><trkpt lat="51.949557" lon="-1.973742"><ele>95.79</ele><time>2011-08-17T11:34:57Z</time></trkpt><trkpt lat="51.949572" lon="-1.973771"><ele>96.75</ele><time>2011-08-17T11:35:00Z</time></trkpt><trkpt lat="51.949642" lon="-1.973876"><ele>96.75</ele><time>2011-08-17T11:35:08Z</time></trkpt><trkpt lat="51.949682" lon="-1.973963"><ele>97.23</ele><time>2011-08-17T11:35:15Z</time></trkpt><trkpt lat="51.949714" lon="-1.974064"><ele>97.23</ele><time>2011-08-17T11:35:23Z</time></trkpt><trkpt lat="51.949696" lon="-1.974092"><ele>95.79</ele><time>2011-08-17T11:35:32Z</time></trkpt><trkpt lat="51.949693" lon="-1.974113"><ele>95.31</ele><time>2011-08-17T11:35:37Z</time></trkpt><trkpt lat="51.949717" lon="-1.974105"><ele>96.27</ele><time>2011-08-17T11:35:43Z</time></trkpt><trkpt lat="51.949753" lon="-1.974087"><ele>97.23</ele><time>2011-08-17T11:35:50Z</time></trkpt><trkpt lat="51.949814" lon="-1.974025"><ele>98.67</ele><time>2011-08-17T11:35:59Z</time></trkpt><trkpt lat="51.949833" lon="-1.974026"><ele>99.15</ele><time>2011-08-17T11:36:01Z</time></trkpt><trkpt lat="51.949880" lon="-1.974021"><ele>99.63</ele><time>2011-08-17T11:36:06Z</time></trkpt><trkpt lat="51.949946" lon="-1.974019"><ele>101.08</ele><time>2011-08-17T11:36:14Z</time></trkpt><trkpt lat="51.949985" lon="-1.973948"><ele>102.04</ele><time>2011-08-17T11:36:21Z</time></trkpt><trkpt lat="51.950051" lon="-1.973875"><ele>102.52</ele><time>2011-08-17T11:36:29Z</time></trkpt><trkpt lat="51.950080" lon="-1.973828"><ele>102.04</ele><time>2011-08-17T11:36:35Z</time></trkpt><trkpt lat="51.950116" lon="-1.973775"><ele>102.04</ele><time>2011-08-17T11:36:41Z</time></trkpt><trkpt lat="51.950156" lon="-1.973726"><ele>102.52</ele><time>2011-08-17T11:36:47Z</time></trkpt><trkpt lat="51.950212" lon="-1.973682"><ele>103.00</ele><time>2011-08-17T11:36:54Z</time></trkpt><trkpt lat="51.950253" lon="-1.973632"><ele>102.52</ele><time>2011-08-17T11:37:00Z</time></trkpt><trkpt lat="51.950285" lon="-1.973577"><ele>103.48</ele><time>2011-08-17T11:37:09Z</time></trkpt><trkpt lat="51.950306" lon="-1.973552"><ele>103.96</ele><time>2011-08-17T11:37:15Z</time></trkpt><trkpt lat="51.950352" lon="-1.973493"><ele>104.44</ele><time>2011-08-17T11:37:23Z</time></trkpt><trkpt lat="51.950410" lon="-1.973432"><ele>103.48</ele><time>2011-08-17T11:37:30Z</time></trkpt><trkpt lat="51.950468" lon="-1.973377"><ele>103.48</ele><time>2011-08-17T11:37:36Z</time></trkpt><trkpt lat="51.950490" lon="-1.973368"><ele>103.48</ele><time>2011-08-17T11:37:38Z</time></trkpt><trkpt lat="51.950553" lon="-1.973323"><ele>103.48</ele><time>2011-08-17T11:37:45Z</time></trkpt><trkpt lat="51.950610" lon="-1.973276"><ele>103.48</ele><time>2011-08-17T11:37:52Z</time></trkpt><trkpt lat="51.950648" lon="-1.973244"><ele>103.48</ele><time>2011-08-17T11:37:56Z</time></trkpt><trkpt lat="51.950700" lon="-1.973184"><ele>104.44</ele><time>2011-08-17T11:38:04Z</time></trkpt><trkpt lat="51.950746" lon="-1.973125"><ele>104.92</ele><time>2011-08-17T11:38:12Z</time></trkpt><trkpt lat="51.950792" lon="-1.973084"><ele>104.44</ele><time>2011-08-17T11:38:18Z</time></trkpt><trkpt lat="51.950796" lon="-1.973076"><ele>104.44</ele><time>2011-08-17T11:38:19Z</time></trkpt><trkpt lat="51.950868" lon="-1.972989"><ele>105.40</ele><time>2011-08-17T11:38:29Z</time></trkpt><trkpt lat="51.950951" lon="-1.972943"><ele>106.36</ele><time>2011-08-17T11:38:36Z</time></trkpt><trkpt lat="51.951040" lon="-1.972883"><ele>105.88</ele><time>2011-08-17T11:38:44Z</time></trkpt><trkpt lat="51.951076" lon="-1.972832"><ele>105.40</ele><time>2011-08-17T11:38:49Z</time></trkpt><trkpt lat="51.951094" lon="-1.972796"><ele>105.88</ele><time>2011-08-17T11:38:52Z</time></trkpt><trkpt lat="51.951143" lon="-1.972727"><ele>105.40</ele><time>2011-08-17T11:39:00Z</time></trkpt><trkpt lat="51.951188" lon="-1.972656"><ele>106.84</ele><time>2011-08-17T11:39:07Z</time></trkpt><trkpt lat="51.951249" lon="-1.972567"><ele>106.84</ele><time>2011-08-17T11:39:14Z</time></trkpt><trkpt lat="51.951319" lon="-1.972452"><ele>106.36</ele><time>2011-08-17T11:39:23Z</time></trkpt><trkpt lat="51.951394" lon="-1.972354"><ele>106.36</ele><time>2011-08-17T11:39:31Z</time></trkpt><trkpt lat="51.951453" lon="-1.972241"><ele>107.32</ele><time>2011-08-17T11:39:39Z</time></trkpt><trkpt lat="51.951490" lon="-1.972178"><ele>107.32</ele><time>2011-08-17T11:39:47Z</time></trkpt><trkpt lat="51.951533" lon="-1.972210"><ele>106.84</ele><time>2011-08-17T11:39:53Z</time></trkpt><trkpt lat="51.951570" lon="-1.972132"><ele>105.88</ele><time>2011-08-17T11:40:01Z</time></trkpt><trkpt lat="51.951629" lon="-1.972001"><ele>105.40</ele><time>2011-08-17T11:40:09Z</time></trkpt><trkpt lat="51.951660" lon="-1.971945"><ele>105.40</ele><time>2011-08-17T11:40:16Z</time></trkpt><trkpt lat="51.951672" lon="-1.971942"><ele>104.92</ele><time>2011-08-17T11:40:29Z</time></trkpt><trkpt lat="51.951723" lon="-1.971954"><ele>102.52</ele><time>2011-08-17T11:40:37Z</time></trkpt><trkpt lat="51.951777" lon="-1.972045"><ele>101.08</ele><time>2011-08-17T11:40:45Z</time></trkpt><trkpt lat="51.951813" lon="-1.972121"><ele>100.11</ele><time>2011-08-17T11:40:51Z</time></trkpt><trkpt lat="51.951897" lon="-1.972303"><ele>101.08</ele><time>2011-08-17T11:41:02Z</time></trkpt><trkpt lat="51.951961" lon="-1.972384"><ele>101.56</ele><time>2011-08-17T11:41:11Z</time></trkpt><trkpt lat="51.952005" lon="-1.972416"><ele>101.56</ele><time>2011-08-17T11:41:18Z</time></trkpt><trkpt lat="51.952047" lon="-1.972435"><ele>102.04</ele><time>2011-08-17T11:41:24Z</time></trkpt><trkpt lat="51.952134" lon="-1.972348"><ele>102.52</ele><time>2011-08-17T11:41:33Z</time></trkpt><trkpt lat="51.952148" lon="-1.972331"><ele>102.52</ele><time>2011-08-17T11:41:35Z</time></trkpt></trkseg></trk></gpx>